<?xml version="1.0" encoding="UTF-8" standalone="no" ?>
<gpx xmlns="http://www.topografix.com/GPX/1/1" xmlns:xsi="http://www.w3.org/2001/XMLSchema-instance" xsi:schemaLocation="http://www.topografix.com/GPX/1/1 http://www.topografix.com/GPX/1/1/gpx.xsd" version="1.1" creator="VisuGPX - https://www.visugpx.com">
  <metadata>
    <name>Port-la-Nouvelle Gravel bike</name>
  </metadata>
  <trk>
    <name><![CDATA[Port-la-Nouvelle Gravel bike_1]]></name>
    <trkseg>
      <trkpt lat="43.02225" lon="3.04192">
        <ele>2</ele>
        <time>2022-12-31T14:00:52Z</time>
      </trkpt>
      <trkpt lat="43.02225" lon="3.04192">
        <ele>5.4</ele>
        <time>2022-12-31T14:00:53Z</time>
      </trkpt>
      <trkpt lat="43.02232" lon="3.04185">
        <ele>5</ele>
        <time>2022-12-31T14:01:35Z</time>
      </trkpt>
      <trkpt lat="43.02237" lon="3.04184">
        <ele>5</ele>
        <time>2022-12-31T14:01:38Z</time>
      </trkpt>
      <trkpt lat="43.02245" lon="3.0419">
        <ele>5</ele>
        <time>2022-12-31T14:01:43Z</time>
      </trkpt>
      <trkpt lat="43.02253" lon="3.04196">
        <ele>5.2</ele>
        <time>2022-12-31T14:01:49Z</time>
      </trkpt>
      <trkpt lat="43.02261" lon="3.04202">
        <ele>5.2</ele>
        <time>2022-12-31T14:01:53Z</time>
      </trkpt>
      <trkpt lat="43.02263" lon="3.04203">
        <ele>5</ele>
        <time>2022-12-31T14:01:55Z</time>
      </trkpt>
      <trkpt lat="43.02286" lon="3.04217">
        <ele>5.2</ele>
        <time>2022-12-31T14:02:05Z</time>
      </trkpt>
      <trkpt lat="43.02292" lon="3.04221">
        <ele>5.2</ele>
        <time>2022-12-31T14:02:08Z</time>
      </trkpt>
      <trkpt lat="43.02295" lon="3.04225">
        <ele>5.2</ele>
        <time>2022-12-31T14:02:10Z</time>
      </trkpt>
      <trkpt lat="43.02316" lon="3.04241">
        <ele>5.4</ele>
        <time>2022-12-31T14:02:19Z</time>
      </trkpt>
      <trkpt lat="43.02317" lon="3.04246">
        <ele>5.4</ele>
        <time>2022-12-31T14:02:22Z</time>
      </trkpt>
      <trkpt lat="43.02317" lon="3.04252">
        <ele>5.4</ele>
        <time>2022-12-31T14:02:23Z</time>
      </trkpt>
      <trkpt lat="43.02318" lon="3.04255">
        <ele>5.4</ele>
        <time>2022-12-31T14:02:24Z</time>
      </trkpt>
      <trkpt lat="43.02322" lon="3.04257">
        <ele>5.6</ele>
        <time>2022-12-31T14:02:26Z</time>
      </trkpt>
      <trkpt lat="43.02325" lon="3.04253">
        <ele>5.6</ele>
        <time>2022-12-31T14:02:28Z</time>
      </trkpt>
      <trkpt lat="43.02329" lon="3.04246">
        <ele>5.4</ele>
        <time>2022-12-31T14:02:30Z</time>
      </trkpt>
      <trkpt lat="43.02337" lon="3.04221">
        <ele>5.8</ele>
        <time>2022-12-31T14:02:38Z</time>
      </trkpt>
      <trkpt lat="43.02344" lon="3.04202">
        <ele>6.2</ele>
        <time>2022-12-31T14:02:44Z</time>
      </trkpt>
      <trkpt lat="43.02352" lon="3.04193">
        <ele>7</ele>
        <time>2022-12-31T14:02:49Z</time>
      </trkpt>
      <trkpt lat="43.02358" lon="3.04193">
        <ele>7.2</ele>
        <time>2022-12-31T14:02:50Z</time>
      </trkpt>
      <trkpt lat="43.02361" lon="3.04194">
        <ele>7.4</ele>
        <time>2022-12-31T14:02:51Z</time>
      </trkpt>
      <trkpt lat="43.02366" lon="3.04197">
        <ele>7.4</ele>
        <time>2022-12-31T14:02:53Z</time>
      </trkpt>
      <trkpt lat="43.02382" lon="3.04208">
        <ele>8.4</ele>
        <time>2022-12-31T14:03:00Z</time>
      </trkpt>
      <trkpt lat="43.02401" lon="3.04218">
        <ele>8.6</ele>
        <time>2022-12-31T14:03:06Z</time>
      </trkpt>
      <trkpt lat="43.02427" lon="3.0423">
        <ele>8.4</ele>
        <time>2022-12-31T14:03:11Z</time>
      </trkpt>
      <trkpt lat="43.02432" lon="3.0423">
        <ele>8.2</ele>
        <time>2022-12-31T14:03:13Z</time>
      </trkpt>
      <trkpt lat="43.02443" lon="3.04218">
        <ele>8</ele>
        <time>2022-12-31T14:03:15Z</time>
      </trkpt>
      <trkpt lat="43.02447" lon="3.04205">
        <ele>7.2</ele>
        <time>2022-12-31T14:03:18Z</time>
      </trkpt>
      <trkpt lat="43.0245" lon="3.04192">
        <ele>7</ele>
        <time>2022-12-31T14:03:19Z</time>
      </trkpt>
      <trkpt lat="43.02451" lon="3.04182">
        <ele>6.6</ele>
        <time>2022-12-31T14:03:21Z</time>
      </trkpt>
      <trkpt lat="43.02453" lon="3.04173">
        <ele>6.2</ele>
        <time>2022-12-31T14:03:23Z</time>
      </trkpt>
      <trkpt lat="43.02458" lon="3.04168">
        <ele>5.8</ele>
        <time>2022-12-31T14:03:25Z</time>
      </trkpt>
      <trkpt lat="43.02468" lon="3.04167">
        <ele>5.4</ele>
        <time>2022-12-31T14:03:29Z</time>
      </trkpt>
      <trkpt lat="43.02468" lon="3.04167">
        <ele>5.2</ele>
        <time>2022-12-31T14:03:30Z</time>
      </trkpt>
      <trkpt lat="43.02474" lon="3.0417">
        <ele>5</ele>
        <time>2022-12-31T14:03:31Z</time>
      </trkpt>
      <trkpt lat="43.0248" lon="3.04173">
        <ele>5</ele>
        <time>2022-12-31T14:03:34Z</time>
      </trkpt>
      <trkpt lat="43.02509" lon="3.0419">
        <ele>4.8</ele>
        <time>2022-12-31T14:03:42Z</time>
      </trkpt>
      <trkpt lat="43.02531" lon="3.04203">
        <ele>4.8</ele>
        <time>2022-12-31T14:03:50Z</time>
      </trkpt>
      <trkpt lat="43.02533" lon="3.04205">
        <ele>4.8</ele>
        <time>2022-12-31T14:03:51Z</time>
      </trkpt>
      <trkpt lat="43.02572" lon="3.04233">
        <ele>4.8</ele>
        <time>2022-12-31T14:04:05Z</time>
      </trkpt>
      <trkpt lat="43.02593" lon="3.04248">
        <ele>4.8</ele>
        <time>2022-12-31T14:04:14Z</time>
      </trkpt>
      <trkpt lat="43.02611" lon="3.04254">
        <ele>4.8</ele>
        <time>2022-12-31T14:04:22Z</time>
      </trkpt>
      <trkpt lat="43.02628" lon="3.04263">
        <ele>4.4</ele>
        <time>2022-12-31T14:04:28Z</time>
      </trkpt>
      <trkpt lat="43.02642" lon="3.04275">
        <ele>4.2</ele>
        <time>2022-12-31T14:04:34Z</time>
      </trkpt>
      <trkpt lat="43.02647" lon="3.04283">
        <ele>4.4</ele>
        <time>2022-12-31T14:04:37Z</time>
      </trkpt>
      <trkpt lat="43.02647" lon="3.04286">
        <ele>4.4</ele>
        <time>2022-12-31T14:04:38Z</time>
      </trkpt>
      <trkpt lat="43.02648" lon="3.04295">
        <ele>4.6</ele>
        <time>2022-12-31T14:04:41Z</time>
      </trkpt>
      <trkpt lat="43.02653" lon="3.043">
        <ele>4.6</ele>
        <time>2022-12-31T14:04:43Z</time>
      </trkpt>
      <trkpt lat="43.02674" lon="3.04315">
        <ele>4.4</ele>
        <time>2022-12-31T14:04:53Z</time>
      </trkpt>
      <trkpt lat="43.02693" lon="3.0433">
        <ele>4.4</ele>
        <time>2022-12-31T14:05:03Z</time>
      </trkpt>
      <trkpt lat="43.02718" lon="3.04345">
        <ele>4.4</ele>
        <time>2022-12-31T14:05:12Z</time>
      </trkpt>
      <trkpt lat="43.0275" lon="3.04367">
        <ele>4.6</ele>
        <time>2022-12-31T14:05:25Z</time>
      </trkpt>
      <trkpt lat="43.02781" lon="3.04387">
        <ele>4.6</ele>
        <time>2022-12-31T14:05:36Z</time>
      </trkpt>
      <trkpt lat="43.02796" lon="3.04396">
        <ele>4.6</ele>
        <time>2022-12-31T14:05:42Z</time>
      </trkpt>
      <trkpt lat="43.02796" lon="3.04396">
        <ele>4.6</ele>
        <time>2022-12-31T14:05:45Z</time>
      </trkpt>
      <trkpt lat="43.02803" lon="3.04399">
        <ele>4.4</ele>
        <time>2022-12-31T14:05:58Z</time>
      </trkpt>
      <trkpt lat="43.02803" lon="3.04399">
        <ele>4.4</ele>
        <time>2022-12-31T14:05:59Z</time>
      </trkpt>
      <trkpt lat="43.0282" lon="3.0441">
        <ele>4.4</ele>
        <time>2022-12-31T14:06:05Z</time>
      </trkpt>
      <trkpt lat="43.02844" lon="3.04423">
        <ele>4.4</ele>
        <time>2022-12-31T14:06:13Z</time>
      </trkpt>
      <trkpt lat="43.02875" lon="3.04444">
        <ele>4.4</ele>
        <time>2022-12-31T14:06:23Z</time>
      </trkpt>
      <trkpt lat="43.02911" lon="3.04468">
        <ele>4.2</ele>
        <time>2022-12-31T14:06:35Z</time>
      </trkpt>
      <trkpt lat="43.02953" lon="3.04494">
        <ele>4.4</ele>
        <time>2022-12-31T14:06:46Z</time>
      </trkpt>
      <trkpt lat="43.02988" lon="3.04516">
        <ele>4.4</ele>
        <time>2022-12-31T14:06:56Z</time>
      </trkpt>
      <trkpt lat="43.03021" lon="3.04537">
        <ele>4.2</ele>
        <time>2022-12-31T14:07:07Z</time>
      </trkpt>
      <trkpt lat="43.03046" lon="3.04555">
        <ele>4.2</ele>
        <time>2022-12-31T14:07:15Z</time>
      </trkpt>
      <trkpt lat="43.03073" lon="3.04571">
        <ele>4.4</ele>
        <time>2022-12-31T14:07:23Z</time>
      </trkpt>
      <trkpt lat="43.03108" lon="3.04594">
        <ele>4.4</ele>
        <time>2022-12-31T14:07:33Z</time>
      </trkpt>
      <trkpt lat="43.0315" lon="3.0462">
        <ele>4.6</ele>
        <time>2022-12-31T14:07:45Z</time>
      </trkpt>
      <trkpt lat="43.03191" lon="3.04646">
        <ele>4.4</ele>
        <time>2022-12-31T14:07:57Z</time>
      </trkpt>
      <trkpt lat="43.03217" lon="3.04665">
        <ele>4.6</ele>
        <time>2022-12-31T14:08:06Z</time>
      </trkpt>
      <trkpt lat="43.03225" lon="3.04673">
        <ele>4.6</ele>
        <time>2022-12-31T14:08:11Z</time>
      </trkpt>
      <trkpt lat="43.03232" lon="3.04676">
        <ele>4.4</ele>
        <time>2022-12-31T14:08:15Z</time>
      </trkpt>
      <trkpt lat="43.03236" lon="3.04677">
        <ele>4.2</ele>
        <time>2022-12-31T14:08:17Z</time>
      </trkpt>
      <trkpt lat="43.03247" lon="3.04684">
        <ele>4.2</ele>
        <time>2022-12-31T14:08:21Z</time>
      </trkpt>
      <trkpt lat="43.03263" lon="3.04694">
        <ele>4.2</ele>
        <time>2022-12-31T14:08:28Z</time>
      </trkpt>
      <trkpt lat="43.03282" lon="3.04705">
        <ele>4.2</ele>
        <time>2022-12-31T14:08:35Z</time>
      </trkpt>
      <trkpt lat="43.03297" lon="3.04713">
        <ele>4.4</ele>
        <time>2022-12-31T14:08:40Z</time>
      </trkpt>
      <trkpt lat="43.03315" lon="3.04727">
        <ele>4.2</ele>
        <time>2022-12-31T14:08:46Z</time>
      </trkpt>
      <trkpt lat="43.03339" lon="3.04745">
        <ele>4</ele>
        <time>2022-12-31T14:08:55Z</time>
      </trkpt>
      <trkpt lat="43.0334" lon="3.04746">
        <ele>4.2</ele>
        <time>2022-12-31T14:08:56Z</time>
      </trkpt>
      <trkpt lat="43.03343" lon="3.04754">
        <ele>4.2</ele>
        <time>2022-12-31T14:08:59Z</time>
      </trkpt>
      <trkpt lat="43.0335" lon="3.04775">
        <ele>4.2</ele>
        <time>2022-12-31T14:09:04Z</time>
      </trkpt>
      <trkpt lat="43.03364" lon="3.0479">
        <ele>4</ele>
        <time>2022-12-31T14:09:09Z</time>
      </trkpt>
      <trkpt lat="43.03381" lon="3.04797">
        <ele>4</ele>
        <time>2022-12-31T14:09:15Z</time>
      </trkpt>
      <trkpt lat="43.03405" lon="3.04808">
        <ele>4</ele>
        <time>2022-12-31T14:09:22Z</time>
      </trkpt>
      <trkpt lat="43.03423" lon="3.04807">
        <ele>4</ele>
        <time>2022-12-31T14:09:27Z</time>
      </trkpt>
      <trkpt lat="43.03438" lon="3.04812">
        <ele>4</ele>
        <time>2022-12-31T14:09:32Z</time>
      </trkpt>
      <trkpt lat="43.03456" lon="3.04819">
        <ele>4</ele>
        <time>2022-12-31T14:09:38Z</time>
      </trkpt>
      <trkpt lat="43.03475" lon="3.0483">
        <ele>4.2</ele>
        <time>2022-12-31T14:09:45Z</time>
      </trkpt>
      <trkpt lat="43.03508" lon="3.04852">
        <ele>4.2</ele>
        <time>2022-12-31T14:09:56Z</time>
      </trkpt>
      <trkpt lat="43.03533" lon="3.04869">
        <ele>4</ele>
        <time>2022-12-31T14:10:04Z</time>
      </trkpt>
      <trkpt lat="43.03566" lon="3.0489">
        <ele>4</ele>
        <time>2022-12-31T14:10:14Z</time>
      </trkpt>
      <trkpt lat="43.03592" lon="3.04906">
        <ele>4</ele>
        <time>2022-12-31T14:10:22Z</time>
      </trkpt>
      <trkpt lat="43.0362" lon="3.04925">
        <ele>4</ele>
        <time>2022-12-31T14:10:31Z</time>
      </trkpt>
      <trkpt lat="43.03647" lon="3.04942">
        <ele>3.8</ele>
        <time>2022-12-31T14:10:39Z</time>
      </trkpt>
      <trkpt lat="43.03674" lon="3.0496">
        <ele>3.8</ele>
        <time>2022-12-31T14:10:48Z</time>
      </trkpt>
      <trkpt lat="43.0369" lon="3.04972">
        <ele>3.8</ele>
        <time>2022-12-31T14:10:55Z</time>
      </trkpt>
      <trkpt lat="43.03705" lon="3.04982">
        <ele>3.8</ele>
        <time>2022-12-31T14:11:01Z</time>
      </trkpt>
      <trkpt lat="43.03726" lon="3.04995">
        <ele>3.8</ele>
        <time>2022-12-31T14:11:09Z</time>
      </trkpt>
      <trkpt lat="43.03746" lon="3.05009">
        <ele>3.8</ele>
        <time>2022-12-31T14:11:16Z</time>
      </trkpt>
      <trkpt lat="43.03756" lon="3.05021">
        <ele>3.8</ele>
        <time>2022-12-31T14:11:21Z</time>
      </trkpt>
      <trkpt lat="43.03766" lon="3.05036">
        <ele>3.8</ele>
        <time>2022-12-31T14:11:27Z</time>
      </trkpt>
      <trkpt lat="43.03775" lon="3.05047">
        <ele>3.8</ele>
        <time>2022-12-31T14:11:34Z</time>
      </trkpt>
      <trkpt lat="43.03786" lon="3.05053">
        <ele>3.8</ele>
        <time>2022-12-31T14:11:40Z</time>
      </trkpt>
      <trkpt lat="43.03808" lon="3.05062">
        <ele>3.6</ele>
        <time>2022-12-31T14:11:49Z</time>
      </trkpt>
      <trkpt lat="43.03837" lon="3.05084">
        <ele>3.6</ele>
        <time>2022-12-31T14:12:00Z</time>
      </trkpt>
      <trkpt lat="43.03851" lon="3.05092">
        <ele>3.6</ele>
        <time>2022-12-31T14:12:05Z</time>
      </trkpt>
      <trkpt lat="43.03867" lon="3.05102">
        <ele>3.4</ele>
        <time>2022-12-31T14:12:11Z</time>
      </trkpt>
      <trkpt lat="43.03882" lon="3.05101">
        <ele>3.4</ele>
        <time>2022-12-31T14:12:16Z</time>
      </trkpt>
      <trkpt lat="43.03897" lon="3.05103">
        <ele>3.4</ele>
        <time>2022-12-31T14:12:21Z</time>
      </trkpt>
      <trkpt lat="43.03918" lon="3.05117">
        <ele>3.6</ele>
        <time>2022-12-31T14:12:29Z</time>
      </trkpt>
      <trkpt lat="43.03939" lon="3.05128">
        <ele>3.8</ele>
        <time>2022-12-31T14:12:37Z</time>
      </trkpt>
      <trkpt lat="43.03959" lon="3.05144">
        <ele>3.6</ele>
        <time>2022-12-31T14:12:45Z</time>
      </trkpt>
      <trkpt lat="43.0398" lon="3.05159">
        <ele>3.6</ele>
        <time>2022-12-31T14:12:53Z</time>
      </trkpt>
      <trkpt lat="43.03994" lon="3.05167">
        <ele>3.6</ele>
        <time>2022-12-31T14:12:58Z</time>
      </trkpt>
      <trkpt lat="43.0401" lon="3.05179">
        <ele>3.4</ele>
        <time>2022-12-31T14:13:04Z</time>
      </trkpt>
      <trkpt lat="43.04034" lon="3.05196">
        <ele>3.6</ele>
        <time>2022-12-31T14:13:12Z</time>
      </trkpt>
      <trkpt lat="43.04057" lon="3.05211">
        <ele>3.6</ele>
        <time>2022-12-31T14:13:19Z</time>
      </trkpt>
      <trkpt lat="43.0409" lon="3.05234">
        <ele>3.4</ele>
        <time>2022-12-31T14:13:29Z</time>
      </trkpt>
      <trkpt lat="43.04114" lon="3.05246">
        <ele>3.4</ele>
        <time>2022-12-31T14:13:36Z</time>
      </trkpt>
      <trkpt lat="43.04145" lon="3.05263">
        <ele>3.4</ele>
        <time>2022-12-31T14:13:45Z</time>
      </trkpt>
      <trkpt lat="43.04167" lon="3.05275">
        <ele>3.4</ele>
        <time>2022-12-31T14:13:52Z</time>
      </trkpt>
      <trkpt lat="43.04183" lon="3.05286">
        <ele>3.2</ele>
        <time>2022-12-31T14:13:59Z</time>
      </trkpt>
      <trkpt lat="43.0419" lon="3.05296">
        <ele>3.6</ele>
        <time>2022-12-31T14:14:04Z</time>
      </trkpt>
      <trkpt lat="43.04199" lon="3.05311">
        <ele>4</ele>
        <time>2022-12-31T14:14:09Z</time>
      </trkpt>
      <trkpt lat="43.04213" lon="3.05319">
        <ele>4.4</ele>
        <time>2022-12-31T14:14:16Z</time>
      </trkpt>
      <trkpt lat="43.0423" lon="3.05331">
        <ele>4.2</ele>
        <time>2022-12-31T14:14:24Z</time>
      </trkpt>
      <trkpt lat="43.04249" lon="3.05343">
        <ele>4.2</ele>
        <time>2022-12-31T14:14:32Z</time>
      </trkpt>
      <trkpt lat="43.04261" lon="3.05351">
        <ele>4.2</ele>
        <time>2022-12-31T14:14:38Z</time>
      </trkpt>
      <trkpt lat="43.04276" lon="3.05353">
        <ele>4.2</ele>
        <time>2022-12-31T14:14:45Z</time>
      </trkpt>
      <trkpt lat="43.04284" lon="3.05352">
        <ele>4.4</ele>
        <time>2022-12-31T14:14:48Z</time>
      </trkpt>
      <trkpt lat="43.0429" lon="3.05355">
        <ele>4.4</ele>
        <time>2022-12-31T14:14:50Z</time>
      </trkpt>
      <trkpt lat="43.04312" lon="3.05369">
        <ele>3.8</ele>
        <time>2022-12-31T14:14:57Z</time>
      </trkpt>
      <trkpt lat="43.04333" lon="3.05382">
        <ele>3.6</ele>
        <time>2022-12-31T14:15:04Z</time>
      </trkpt>
      <trkpt lat="43.04356" lon="3.05395">
        <ele>3.4</ele>
        <time>2022-12-31T14:15:11Z</time>
      </trkpt>
      <trkpt lat="43.04383" lon="3.05415">
        <ele>3.4</ele>
        <time>2022-12-31T14:15:21Z</time>
      </trkpt>
      <trkpt lat="43.04404" lon="3.05428">
        <ele>3.4</ele>
        <time>2022-12-31T14:15:28Z</time>
      </trkpt>
      <trkpt lat="43.04422" lon="3.05439">
        <ele>3.6</ele>
        <time>2022-12-31T14:15:34Z</time>
      </trkpt>
      <trkpt lat="43.04454" lon="3.05459">
        <ele>3.4</ele>
        <time>2022-12-31T14:15:45Z</time>
      </trkpt>
      <trkpt lat="43.04474" lon="3.05471">
        <ele>3.4</ele>
        <time>2022-12-31T14:15:52Z</time>
      </trkpt>
      <trkpt lat="43.04502" lon="3.05486">
        <ele>3.6</ele>
        <time>2022-12-31T14:16:02Z</time>
      </trkpt>
      <trkpt lat="43.04521" lon="3.05501">
        <ele>3.6</ele>
        <time>2022-12-31T14:16:10Z</time>
      </trkpt>
      <trkpt lat="43.04542" lon="3.05514">
        <ele>3.8</ele>
        <time>2022-12-31T14:16:18Z</time>
      </trkpt>
      <trkpt lat="43.04564" lon="3.0553">
        <ele>4</ele>
        <time>2022-12-31T14:16:26Z</time>
      </trkpt>
      <trkpt lat="43.04577" lon="3.05538">
        <ele>4</ele>
        <time>2022-12-31T14:16:31Z</time>
      </trkpt>
      <trkpt lat="43.04605" lon="3.05556">
        <ele>3.8</ele>
        <time>2022-12-31T14:16:40Z</time>
      </trkpt>
      <trkpt lat="43.04625" lon="3.05568">
        <ele>3.8</ele>
        <time>2022-12-31T14:16:47Z</time>
      </trkpt>
      <trkpt lat="43.04648" lon="3.05581">
        <ele>3.8</ele>
        <time>2022-12-31T14:16:55Z</time>
      </trkpt>
      <trkpt lat="43.04668" lon="3.05594">
        <ele>3.8</ele>
        <time>2022-12-31T14:17:02Z</time>
      </trkpt>
      <trkpt lat="43.04693" lon="3.0561">
        <ele>3.8</ele>
        <time>2022-12-31T14:17:11Z</time>
      </trkpt>
      <trkpt lat="43.0471" lon="3.05618">
        <ele>3.8</ele>
        <time>2022-12-31T14:17:18Z</time>
      </trkpt>
      <trkpt lat="43.04721" lon="3.05613">
        <ele>4</ele>
        <time>2022-12-31T14:17:25Z</time>
      </trkpt>
      <trkpt lat="43.0473" lon="3.05613">
        <ele>4.2</ele>
        <time>2022-12-31T14:17:31Z</time>
      </trkpt>
      <trkpt lat="43.0473" lon="3.05613">
        <ele>4.4</ele>
        <time>2022-12-31T14:17:34Z</time>
      </trkpt>
      <trkpt lat="43.04737" lon="3.05615">
        <ele>4</ele>
        <time>2022-12-31T14:18:36Z</time>
      </trkpt>
      <trkpt lat="43.04741" lon="3.05618">
        <ele>4</ele>
        <time>2022-12-31T14:18:38Z</time>
      </trkpt>
      <trkpt lat="43.04753" lon="3.05626">
        <ele>4</ele>
        <time>2022-12-31T14:18:43Z</time>
      </trkpt>
      <trkpt lat="43.04764" lon="3.05634">
        <ele>4</ele>
        <time>2022-12-31T14:18:49Z</time>
      </trkpt>
      <trkpt lat="43.04776" lon="3.05642">
        <ele>4</ele>
        <time>2022-12-31T14:18:55Z</time>
      </trkpt>
      <trkpt lat="43.04786" lon="3.0565">
        <ele>4.2</ele>
        <time>2022-12-31T14:19:01Z</time>
      </trkpt>
      <trkpt lat="43.04804" lon="3.05661">
        <ele>4.2</ele>
        <time>2022-12-31T14:19:08Z</time>
      </trkpt>
      <trkpt lat="43.0483" lon="3.05677">
        <ele>4.2</ele>
        <time>2022-12-31T14:19:17Z</time>
      </trkpt>
      <trkpt lat="43.04851" lon="3.05692">
        <ele>4.2</ele>
        <time>2022-12-31T14:19:25Z</time>
      </trkpt>
      <trkpt lat="43.0489" lon="3.05716">
        <ele>4</ele>
        <time>2022-12-31T14:19:38Z</time>
      </trkpt>
      <trkpt lat="43.0492" lon="3.05732">
        <ele>4.2</ele>
        <time>2022-12-31T14:19:48Z</time>
      </trkpt>
      <trkpt lat="43.04933" lon="3.05743">
        <ele>4.2</ele>
        <time>2022-12-31T14:19:53Z</time>
      </trkpt>
      <trkpt lat="43.04967" lon="3.05765">
        <ele>4.2</ele>
        <time>2022-12-31T14:20:04Z</time>
      </trkpt>
      <trkpt lat="43.04982" lon="3.05776">
        <ele>4.2</ele>
        <time>2022-12-31T14:20:11Z</time>
      </trkpt>
      <trkpt lat="43.04983" lon="3.0578">
        <ele>4.2</ele>
        <time>2022-12-31T14:20:13Z</time>
      </trkpt>
      <trkpt lat="43.04981" lon="3.05787">
        <ele>4.4</ele>
        <time>2022-12-31T14:20:16Z</time>
      </trkpt>
      <trkpt lat="43.04978" lon="3.05802">
        <ele>4.6</ele>
        <time>2022-12-31T14:20:20Z</time>
      </trkpt>
      <trkpt lat="43.04975" lon="3.05821">
        <ele>4.6</ele>
        <time>2022-12-31T14:20:26Z</time>
      </trkpt>
      <trkpt lat="43.04971" lon="3.05844">
        <ele>4.4</ele>
        <time>2022-12-31T14:20:33Z</time>
      </trkpt>
      <trkpt lat="43.04969" lon="3.05865">
        <ele>4.2</ele>
        <time>2022-12-31T14:20:39Z</time>
      </trkpt>
      <trkpt lat="43.04962" lon="3.05893">
        <ele>4.2</ele>
        <time>2022-12-31T14:20:48Z</time>
      </trkpt>
      <trkpt lat="43.04959" lon="3.0591">
        <ele>4.2</ele>
        <time>2022-12-31T14:20:54Z</time>
      </trkpt>
      <trkpt lat="43.04954" lon="3.05939">
        <ele>4.4</ele>
        <time>2022-12-31T14:21:02Z</time>
      </trkpt>
      <trkpt lat="43.04952" lon="3.05965">
        <ele>4.4</ele>
        <time>2022-12-31T14:21:08Z</time>
      </trkpt>
      <trkpt lat="43.04947" lon="3.06012">
        <ele>4.2</ele>
        <time>2022-12-31T14:21:18Z</time>
      </trkpt>
      <trkpt lat="43.04944" lon="3.06052">
        <ele>4.6</ele>
        <time>2022-12-31T14:21:26Z</time>
      </trkpt>
      <trkpt lat="43.04944" lon="3.06092">
        <ele>4.6</ele>
        <time>2022-12-31T14:21:34Z</time>
      </trkpt>
      <trkpt lat="43.04954" lon="3.06127">
        <ele>5</ele>
        <time>2022-12-31T14:21:42Z</time>
      </trkpt>
      <trkpt lat="43.04964" lon="3.0616">
        <ele>5</ele>
        <time>2022-12-31T14:21:50Z</time>
      </trkpt>
      <trkpt lat="43.04973" lon="3.0619">
        <ele>5</ele>
        <time>2022-12-31T14:21:57Z</time>
      </trkpt>
      <trkpt lat="43.04986" lon="3.06219">
        <ele>4.6</ele>
        <time>2022-12-31T14:22:05Z</time>
      </trkpt>
      <trkpt lat="43.05006" lon="3.06262">
        <ele>4.4</ele>
        <time>2022-12-31T14:22:17Z</time>
      </trkpt>
      <trkpt lat="43.05011" lon="3.06275">
        <ele>4.6</ele>
        <time>2022-12-31T14:22:23Z</time>
      </trkpt>
      <trkpt lat="43.05023" lon="3.06307">
        <ele>4.8</ele>
        <time>2022-12-31T14:22:33Z</time>
      </trkpt>
      <trkpt lat="43.05032" lon="3.06343">
        <ele>5</ele>
        <time>2022-12-31T14:22:42Z</time>
      </trkpt>
      <trkpt lat="43.05044" lon="3.06392">
        <ele>4.8</ele>
        <time>2022-12-31T14:22:53Z</time>
      </trkpt>
      <trkpt lat="43.05051" lon="3.06422">
        <ele>4.6</ele>
        <time>2022-12-31T14:23:00Z</time>
      </trkpt>
      <trkpt lat="43.0506" lon="3.06461">
        <ele>4.6</ele>
        <time>2022-12-31T14:23:09Z</time>
      </trkpt>
      <trkpt lat="43.05073" lon="3.0651">
        <ele>4.4</ele>
        <time>2022-12-31T14:23:20Z</time>
      </trkpt>
      <trkpt lat="43.05081" lon="3.06546">
        <ele>4.4</ele>
        <time>2022-12-31T14:23:28Z</time>
      </trkpt>
      <trkpt lat="43.05089" lon="3.06577">
        <ele>4.4</ele>
        <time>2022-12-31T14:23:35Z</time>
      </trkpt>
      <trkpt lat="43.05095" lon="3.06597">
        <ele>4.4</ele>
        <time>2022-12-31T14:23:41Z</time>
      </trkpt>
      <trkpt lat="43.05096" lon="3.06602">
        <ele>4</ele>
        <time>2022-12-31T14:23:47Z</time>
      </trkpt>
      <trkpt lat="43.05098" lon="3.06603">
        <ele>3.8</ele>
        <time>2022-12-31T14:24:04Z</time>
      </trkpt>
      <trkpt lat="43.05104" lon="3.06607">
        <ele>3.8</ele>
        <time>2022-12-31T14:24:07Z</time>
      </trkpt>
      <trkpt lat="43.05117" lon="3.06619">
        <ele>3.8</ele>
        <time>2022-12-31T14:24:13Z</time>
      </trkpt>
      <trkpt lat="43.05132" lon="3.06635">
        <ele>3.8</ele>
        <time>2022-12-31T14:24:19Z</time>
      </trkpt>
      <trkpt lat="43.05156" lon="3.06662">
        <ele>3.6</ele>
        <time>2022-12-31T14:24:28Z</time>
      </trkpt>
      <trkpt lat="43.05184" lon="3.06693">
        <ele>3.8</ele>
        <time>2022-12-31T14:24:38Z</time>
      </trkpt>
      <trkpt lat="43.05214" lon="3.06725">
        <ele>4</ele>
        <time>2022-12-31T14:24:48Z</time>
      </trkpt>
      <trkpt lat="43.05239" lon="3.06756">
        <ele>4</ele>
        <time>2022-12-31T14:24:57Z</time>
      </trkpt>
      <trkpt lat="43.05269" lon="3.06788">
        <ele>4</ele>
        <time>2022-12-31T14:25:07Z</time>
      </trkpt>
      <trkpt lat="43.05292" lon="3.06817">
        <ele>4</ele>
        <time>2022-12-31T14:25:15Z</time>
      </trkpt>
      <trkpt lat="43.05318" lon="3.06865">
        <ele>4</ele>
        <time>2022-12-31T14:25:26Z</time>
      </trkpt>
      <trkpt lat="43.05342" lon="3.06909">
        <ele>4</ele>
        <time>2022-12-31T14:25:36Z</time>
      </trkpt>
      <trkpt lat="43.05367" lon="3.06954">
        <ele>3.8</ele>
        <time>2022-12-31T14:25:46Z</time>
      </trkpt>
      <trkpt lat="43.05386" lon="3.06989">
        <ele>3.8</ele>
        <time>2022-12-31T14:25:54Z</time>
      </trkpt>
      <trkpt lat="43.05403" lon="3.07011">
        <ele>3.8</ele>
        <time>2022-12-31T14:26:00Z</time>
      </trkpt>
      <trkpt lat="43.05435" lon="3.07033">
        <ele>4</ele>
        <time>2022-12-31T14:26:09Z</time>
      </trkpt>
      <trkpt lat="43.05477" lon="3.07061">
        <ele>4</ele>
        <time>2022-12-31T14:26:21Z</time>
      </trkpt>
      <trkpt lat="43.05509" lon="3.07082">
        <ele>4</ele>
        <time>2022-12-31T14:26:30Z</time>
      </trkpt>
      <trkpt lat="43.05547" lon="3.0711">
        <ele>3.8</ele>
        <time>2022-12-31T14:26:41Z</time>
      </trkpt>
      <trkpt lat="43.05578" lon="3.0713">
        <ele>4</ele>
        <time>2022-12-31T14:26:50Z</time>
      </trkpt>
      <trkpt lat="43.0561" lon="3.07149">
        <ele>4.4</ele>
        <time>2022-12-31T14:26:59Z</time>
      </trkpt>
      <trkpt lat="43.05647" lon="3.0717">
        <ele>4</ele>
        <time>2022-12-31T14:27:09Z</time>
      </trkpt>
      <trkpt lat="43.05688" lon="3.07191">
        <ele>4.2</ele>
        <time>2022-12-31T14:27:20Z</time>
      </trkpt>
      <trkpt lat="43.05713" lon="3.07204">
        <ele>4.2</ele>
        <time>2022-12-31T14:27:27Z</time>
      </trkpt>
      <trkpt lat="43.05753" lon="3.07226">
        <ele>4.4</ele>
        <time>2022-12-31T14:27:38Z</time>
      </trkpt>
      <trkpt lat="43.0579" lon="3.0725">
        <ele>4.4</ele>
        <time>2022-12-31T14:27:49Z</time>
      </trkpt>
      <trkpt lat="43.05804" lon="3.07264">
        <ele>4.4</ele>
        <time>2022-12-31T14:27:54Z</time>
      </trkpt>
      <trkpt lat="43.05813" lon="3.07288">
        <ele>4.2</ele>
        <time>2022-12-31T14:28:00Z</time>
      </trkpt>
      <trkpt lat="43.05826" lon="3.07329">
        <ele>4</ele>
        <time>2022-12-31T14:28:09Z</time>
      </trkpt>
      <trkpt lat="43.05838" lon="3.07374">
        <ele>4.4</ele>
        <time>2022-12-31T14:28:19Z</time>
      </trkpt>
      <trkpt lat="43.05847" lon="3.07407">
        <ele>4.6</ele>
        <time>2022-12-31T14:28:26Z</time>
      </trkpt>
      <trkpt lat="43.05857" lon="3.0744">
        <ele>4.6</ele>
        <time>2022-12-31T14:28:33Z</time>
      </trkpt>
      <trkpt lat="43.0587" lon="3.07494">
        <ele>4.4</ele>
        <time>2022-12-31T14:28:44Z</time>
      </trkpt>
      <trkpt lat="43.05871" lon="3.07527">
        <ele>4.2</ele>
        <time>2022-12-31T14:28:50Z</time>
      </trkpt>
      <trkpt lat="43.05861" lon="3.07569">
        <ele>4</ele>
        <time>2022-12-31T14:28:59Z</time>
      </trkpt>
      <trkpt lat="43.05845" lon="3.07626">
        <ele>4</ele>
        <time>2022-12-31T14:29:11Z</time>
      </trkpt>
      <trkpt lat="43.05837" lon="3.07641">
        <ele>3.8</ele>
        <time>2022-12-31T14:29:16Z</time>
      </trkpt>
      <trkpt lat="43.05831" lon="3.07659">
        <ele>3.6</ele>
        <time>2022-12-31T14:29:23Z</time>
      </trkpt>
      <trkpt lat="43.05831" lon="3.07662">
        <ele>3.6</ele>
        <time>2022-12-31T14:29:24Z</time>
      </trkpt>
      <trkpt lat="43.05835" lon="3.07676">
        <ele>3.6</ele>
        <time>2022-12-31T14:29:28Z</time>
      </trkpt>
      <trkpt lat="43.05842" lon="3.07694">
        <ele>3.6</ele>
        <time>2022-12-31T14:29:33Z</time>
      </trkpt>
      <trkpt lat="43.05844" lon="3.07707">
        <ele>3.8</ele>
        <time>2022-12-31T14:29:37Z</time>
      </trkpt>
      <trkpt lat="43.05845" lon="3.0771">
        <ele>3.8</ele>
        <time>2022-12-31T14:29:38Z</time>
      </trkpt>
      <trkpt lat="43.05849" lon="3.07717">
        <ele>3.8</ele>
        <time>2022-12-31T14:29:41Z</time>
      </trkpt>
      <trkpt lat="43.05853" lon="3.07721">
        <ele>4</ele>
        <time>2022-12-31T14:29:43Z</time>
      </trkpt>
      <trkpt lat="43.05855" lon="3.07724">
        <ele>4</ele>
        <time>2022-12-31T14:29:47Z</time>
      </trkpt>
      <trkpt lat="43.05851" lon="3.07725">
        <ele>4</ele>
        <time>2022-12-31T14:29:52Z</time>
      </trkpt>
      <trkpt lat="43.05851" lon="3.07726">
        <ele>4</ele>
        <time>2022-12-31T14:29:53Z</time>
      </trkpt>
      <trkpt lat="43.05847" lon="3.07739">
        <ele>4.2</ele>
        <time>2022-12-31T14:29:58Z</time>
      </trkpt>
      <trkpt lat="43.05847" lon="3.07743">
        <ele>4.4</ele>
        <time>2022-12-31T14:30:00Z</time>
      </trkpt>
      <trkpt lat="43.05847" lon="3.07745">
        <ele>4.4</ele>
        <time>2022-12-31T14:30:04Z</time>
      </trkpt>
      <trkpt lat="43.05847" lon="3.0773">
        <ele>1.8</ele>
        <time>2022-12-31T14:42:35Z</time>
      </trkpt>
      <trkpt lat="43.05845" lon="3.07727">
        <ele>4.4</ele>
        <time>2022-12-31T14:42:39Z</time>
      </trkpt>
      <trkpt lat="43.05845" lon="3.07727">
        <ele>4.4</ele>
        <time>2022-12-31T14:42:41Z</time>
      </trkpt>
      <trkpt lat="43.05845" lon="3.07721">
        <ele>4.2</ele>
        <time>2022-12-31T14:43:03Z</time>
      </trkpt>
      <trkpt lat="43.05846" lon="3.07718">
        <ele>4.2</ele>
        <time>2022-12-31T14:43:04Z</time>
      </trkpt>
      <trkpt lat="43.05847" lon="3.07713">
        <ele>4.2</ele>
        <time>2022-12-31T14:43:06Z</time>
      </trkpt>
      <trkpt lat="43.05844" lon="3.07706">
        <ele>4.2</ele>
        <time>2022-12-31T14:43:09Z</time>
      </trkpt>
      <trkpt lat="43.05843" lon="3.07704">
        <ele>4.2</ele>
        <time>2022-12-31T14:43:10Z</time>
      </trkpt>
      <trkpt lat="43.05839" lon="3.07706">
        <ele>4.2</ele>
        <time>2022-12-31T14:43:13Z</time>
      </trkpt>
      <trkpt lat="43.05828" lon="3.07723">
        <ele>4</ele>
        <time>2022-12-31T14:43:21Z</time>
      </trkpt>
      <trkpt lat="43.05816" lon="3.0773">
        <ele>4</ele>
        <time>2022-12-31T14:43:26Z</time>
      </trkpt>
      <trkpt lat="43.05814" lon="3.07731">
        <ele>4</ele>
        <time>2022-12-31T14:43:27Z</time>
      </trkpt>
      <trkpt lat="43.05808" lon="3.07736">
        <ele>4</ele>
        <time>2022-12-31T14:43:31Z</time>
      </trkpt>
      <trkpt lat="43.05804" lon="3.07736">
        <ele>4</ele>
        <time>2022-12-31T14:43:33Z</time>
      </trkpt>
      <trkpt lat="43.05781" lon="3.07738">
        <ele>4</ele>
        <time>2022-12-31T14:43:44Z</time>
      </trkpt>
      <trkpt lat="43.05757" lon="3.07749">
        <ele>4</ele>
        <time>2022-12-31T14:43:53Z</time>
      </trkpt>
      <trkpt lat="43.05733" lon="3.0776">
        <ele>4</ele>
        <time>2022-12-31T14:44:01Z</time>
      </trkpt>
      <trkpt lat="43.05708" lon="3.07774">
        <ele>4</ele>
        <time>2022-12-31T14:44:09Z</time>
      </trkpt>
      <trkpt lat="43.05681" lon="3.07786">
        <ele>4.2</ele>
        <time>2022-12-31T14:44:19Z</time>
      </trkpt>
      <trkpt lat="43.0567" lon="3.07791">
        <ele>4.2</ele>
        <time>2022-12-31T14:44:25Z</time>
      </trkpt>
      <trkpt lat="43.05652" lon="3.07792">
        <ele>4</ele>
        <time>2022-12-31T14:44:34Z</time>
      </trkpt>
      <trkpt lat="43.0564" lon="3.07786">
        <ele>4</ele>
        <time>2022-12-31T14:44:41Z</time>
      </trkpt>
      <trkpt lat="43.05621" lon="3.07775">
        <ele>4</ele>
        <time>2022-12-31T14:44:51Z</time>
      </trkpt>
      <trkpt lat="43.05606" lon="3.07766">
        <ele>4</ele>
        <time>2022-12-31T14:44:59Z</time>
      </trkpt>
      <trkpt lat="43.05593" lon="3.07764">
        <ele>4</ele>
        <time>2022-12-31T14:45:05Z</time>
      </trkpt>
      <trkpt lat="43.05573" lon="3.07767">
        <ele>4</ele>
        <time>2022-12-31T14:45:14Z</time>
      </trkpt>
      <trkpt lat="43.05566" lon="3.07768">
        <ele>4.2</ele>
        <time>2022-12-31T14:45:18Z</time>
      </trkpt>
      <trkpt lat="43.05564" lon="3.07769">
        <ele>4.4</ele>
        <time>2022-12-31T14:45:20Z</time>
      </trkpt>
      <trkpt lat="43.05562" lon="3.07768">
        <ele>4.6</ele>
        <time>2022-12-31T14:45:24Z</time>
      </trkpt>
      <trkpt lat="43.05554" lon="3.07762">
        <ele>5.4</ele>
        <time>2022-12-31T14:45:40Z</time>
      </trkpt>
      <trkpt lat="43.05552" lon="3.07761">
        <ele>5.4</ele>
        <time>2022-12-31T14:45:42Z</time>
      </trkpt>
      <trkpt lat="43.0554" lon="3.07756">
        <ele>5.4</ele>
        <time>2022-12-31T14:45:48Z</time>
      </trkpt>
      <trkpt lat="43.05531" lon="3.07753">
        <ele>5.4</ele>
        <time>2022-12-31T14:45:52Z</time>
      </trkpt>
      <trkpt lat="43.05528" lon="3.07752">
        <ele>5.4</ele>
        <time>2022-12-31T14:45:53Z</time>
      </trkpt>
      <trkpt lat="43.05515" lon="3.07743">
        <ele>5.4</ele>
        <time>2022-12-31T14:45:59Z</time>
      </trkpt>
      <trkpt lat="43.05503" lon="3.07738">
        <ele>5.4</ele>
        <time>2022-12-31T14:46:04Z</time>
      </trkpt>
      <trkpt lat="43.05494" lon="3.07734">
        <ele>5.4</ele>
        <time>2022-12-31T14:46:08Z</time>
      </trkpt>
      <trkpt lat="43.05488" lon="3.07731">
        <ele>5.4</ele>
        <time>2022-12-31T14:46:11Z</time>
      </trkpt>
      <trkpt lat="43.05484" lon="3.07727">
        <ele>5.4</ele>
        <time>2022-12-31T14:46:14Z</time>
      </trkpt>
      <trkpt lat="43.05482" lon="3.07725">
        <ele>5.2</ele>
        <time>2022-12-31T14:46:16Z</time>
      </trkpt>
      <trkpt lat="43.05482" lon="3.07717">
        <ele>5</ele>
        <time>2022-12-31T14:46:19Z</time>
      </trkpt>
      <trkpt lat="43.05483" lon="3.07699">
        <ele>4.4</ele>
        <time>2022-12-31T14:46:24Z</time>
      </trkpt>
      <trkpt lat="43.05482" lon="3.07696">
        <ele>4.4</ele>
        <time>2022-12-31T14:46:25Z</time>
      </trkpt>
      <trkpt lat="43.05483" lon="3.07692">
        <ele>4.2</ele>
        <time>2022-12-31T14:46:26Z</time>
      </trkpt>
      <trkpt lat="43.05483" lon="3.07688">
        <ele>4</ele>
        <time>2022-12-31T14:46:28Z</time>
      </trkpt>
      <trkpt lat="43.05483" lon="3.07688">
        <ele>4</ele>
        <time>2022-12-31T14:46:29Z</time>
      </trkpt>
      <trkpt lat="43.05482" lon="3.07688">
        <ele>4</ele>
        <time>2022-12-31T14:46:32Z</time>
      </trkpt>
      <trkpt lat="43.05481" lon="3.07685">
        <ele>3.6</ele>
        <time>2022-12-31T14:47:55Z</time>
      </trkpt>
      <trkpt lat="43.05481" lon="3.07683">
        <ele>3.6</ele>
        <time>2022-12-31T14:47:56Z</time>
      </trkpt>
      <trkpt lat="43.05477" lon="3.07678">
        <ele>3.6</ele>
        <time>2022-12-31T14:47:59Z</time>
      </trkpt>
      <trkpt lat="43.05473" lon="3.07673">
        <ele>3.6</ele>
        <time>2022-12-31T14:48:02Z</time>
      </trkpt>
      <trkpt lat="43.05461" lon="3.07669">
        <ele>3.6</ele>
        <time>2022-12-31T14:48:09Z</time>
      </trkpt>
      <trkpt lat="43.0545" lon="3.07664">
        <ele>3.6</ele>
        <time>2022-12-31T14:48:15Z</time>
      </trkpt>
      <trkpt lat="43.05449" lon="3.07662">
        <ele>3.6</ele>
        <time>2022-12-31T14:48:16Z</time>
      </trkpt>
      <trkpt lat="43.05445" lon="3.07652">
        <ele>3.6</ele>
        <time>2022-12-31T14:48:20Z</time>
      </trkpt>
      <trkpt lat="43.05442" lon="3.07648">
        <ele>3.6</ele>
        <time>2022-12-31T14:48:22Z</time>
      </trkpt>
      <trkpt lat="43.05433" lon="3.0764">
        <ele>3.6</ele>
        <time>2022-12-31T14:48:27Z</time>
      </trkpt>
      <trkpt lat="43.0543" lon="3.07639">
        <ele>3.6</ele>
        <time>2022-12-31T14:48:28Z</time>
      </trkpt>
      <trkpt lat="43.05419" lon="3.07626">
        <ele>3.6</ele>
        <time>2022-12-31T14:48:34Z</time>
      </trkpt>
      <trkpt lat="43.0541" lon="3.07615">
        <ele>3.6</ele>
        <time>2022-12-31T14:48:40Z</time>
      </trkpt>
      <trkpt lat="43.05403" lon="3.07601">
        <ele>3.6</ele>
        <time>2022-12-31T14:48:45Z</time>
      </trkpt>
      <trkpt lat="43.05392" lon="3.07588">
        <ele>3.6</ele>
        <time>2022-12-31T14:48:51Z</time>
      </trkpt>
      <trkpt lat="43.0538" lon="3.07578">
        <ele>3.6</ele>
        <time>2022-12-31T14:48:57Z</time>
      </trkpt>
      <trkpt lat="43.05362" lon="3.07562">
        <ele>3.8</ele>
        <time>2022-12-31T14:49:05Z</time>
      </trkpt>
      <trkpt lat="43.05352" lon="3.07555">
        <ele>3.6</ele>
        <time>2022-12-31T14:49:10Z</time>
      </trkpt>
      <trkpt lat="43.05334" lon="3.07545">
        <ele>3.6</ele>
        <time>2022-12-31T14:49:17Z</time>
      </trkpt>
      <trkpt lat="43.05321" lon="3.07536">
        <ele>3.8</ele>
        <time>2022-12-31T14:49:23Z</time>
      </trkpt>
      <trkpt lat="43.05301" lon="3.07526">
        <ele>3.8</ele>
        <time>2022-12-31T14:49:31Z</time>
      </trkpt>
      <trkpt lat="43.05287" lon="3.07516">
        <ele>3.8</ele>
        <time>2022-12-31T14:49:38Z</time>
      </trkpt>
      <trkpt lat="43.05266" lon="3.07516">
        <ele>3.6</ele>
        <time>2022-12-31T14:49:46Z</time>
      </trkpt>
      <trkpt lat="43.05249" lon="3.07525">
        <ele>3.6</ele>
        <time>2022-12-31T14:49:54Z</time>
      </trkpt>
      <trkpt lat="43.05238" lon="3.07532">
        <ele>3.6</ele>
        <time>2022-12-31T14:49:59Z</time>
      </trkpt>
      <trkpt lat="43.05221" lon="3.07534">
        <ele>3.6</ele>
        <time>2022-12-31T14:50:06Z</time>
      </trkpt>
      <trkpt lat="43.05208" lon="3.0752">
        <ele>3.8</ele>
        <time>2022-12-31T14:50:13Z</time>
      </trkpt>
      <trkpt lat="43.05198" lon="3.07506">
        <ele>3.8</ele>
        <time>2022-12-31T14:50:19Z</time>
      </trkpt>
      <trkpt lat="43.05188" lon="3.07491">
        <ele>3.8</ele>
        <time>2022-12-31T14:50:25Z</time>
      </trkpt>
      <trkpt lat="43.05186" lon="3.0748">
        <ele>3.8</ele>
        <time>2022-12-31T14:50:30Z</time>
      </trkpt>
      <trkpt lat="43.05186" lon="3.0748">
        <ele>3.8</ele>
        <time>2022-12-31T14:50:31Z</time>
      </trkpt>
      <trkpt lat="43.05184" lon="3.07478">
        <ele>3.8</ele>
        <time>2022-12-31T14:52:48Z</time>
      </trkpt>
      <trkpt lat="43.05181" lon="3.07475">
        <ele>3.8</ele>
        <time>2022-12-31T14:52:50Z</time>
      </trkpt>
      <trkpt lat="43.05168" lon="3.07469">
        <ele>3.4</ele>
        <time>2022-12-31T14:52:55Z</time>
      </trkpt>
      <trkpt lat="43.05165" lon="3.07469">
        <ele>3.4</ele>
        <time>2022-12-31T14:52:56Z</time>
      </trkpt>
      <trkpt lat="43.0516" lon="3.07468">
        <ele>3.2</ele>
        <time>2022-12-31T14:52:58Z</time>
      </trkpt>
      <trkpt lat="43.05157" lon="3.07463">
        <ele>3.2</ele>
        <time>2022-12-31T14:53:00Z</time>
      </trkpt>
      <trkpt lat="43.05155" lon="3.0745">
        <ele>3.2</ele>
        <time>2022-12-31T14:53:05Z</time>
      </trkpt>
      <trkpt lat="43.05158" lon="3.07428">
        <ele>3.6</ele>
        <time>2022-12-31T14:53:12Z</time>
      </trkpt>
      <trkpt lat="43.05166" lon="3.0741">
        <ele>3.8</ele>
        <time>2022-12-31T14:53:18Z</time>
      </trkpt>
      <trkpt lat="43.05164" lon="3.07394">
        <ele>3.8</ele>
        <time>2022-12-31T14:53:23Z</time>
      </trkpt>
      <trkpt lat="43.05158" lon="3.07367">
        <ele>3.2</ele>
        <time>2022-12-31T14:53:31Z</time>
      </trkpt>
      <trkpt lat="43.05151" lon="3.07338">
        <ele>3</ele>
        <time>2022-12-31T14:53:39Z</time>
      </trkpt>
      <trkpt lat="43.05142" lon="3.07312">
        <ele>3.2</ele>
        <time>2022-12-31T14:53:47Z</time>
      </trkpt>
      <trkpt lat="43.05131" lon="3.07284">
        <ele>3.2</ele>
        <time>2022-12-31T14:53:57Z</time>
      </trkpt>
      <trkpt lat="43.05123" lon="3.07256">
        <ele>3.2</ele>
        <time>2022-12-31T14:54:06Z</time>
      </trkpt>
      <trkpt lat="43.05118" lon="3.07241">
        <ele>3.2</ele>
        <time>2022-12-31T14:54:11Z</time>
      </trkpt>
      <trkpt lat="43.05108" lon="3.0722">
        <ele>3.2</ele>
        <time>2022-12-31T14:54:18Z</time>
      </trkpt>
      <trkpt lat="43.05091" lon="3.07201">
        <ele>3.2</ele>
        <time>2022-12-31T14:54:26Z</time>
      </trkpt>
      <trkpt lat="43.05077" lon="3.07192">
        <ele>3.2</ele>
        <time>2022-12-31T14:54:32Z</time>
      </trkpt>
      <trkpt lat="43.05061" lon="3.0718">
        <ele>3.2</ele>
        <time>2022-12-31T14:54:39Z</time>
      </trkpt>
      <trkpt lat="43.0505" lon="3.07166">
        <ele>3.2</ele>
        <time>2022-12-31T14:54:45Z</time>
      </trkpt>
      <trkpt lat="43.0504" lon="3.07153">
        <ele>3</ele>
        <time>2022-12-31T14:54:51Z</time>
      </trkpt>
      <trkpt lat="43.05017" lon="3.07138">
        <ele>3.2</ele>
        <time>2022-12-31T14:55:00Z</time>
      </trkpt>
      <trkpt lat="43.05004" lon="3.07124">
        <ele>3.4</ele>
        <time>2022-12-31T14:55:06Z</time>
      </trkpt>
      <trkpt lat="43.04987" lon="3.07109">
        <ele>3.4</ele>
        <time>2022-12-31T14:55:13Z</time>
      </trkpt>
      <trkpt lat="43.04962" lon="3.07086">
        <ele>3.4</ele>
        <time>2022-12-31T14:55:24Z</time>
      </trkpt>
      <trkpt lat="43.04958" lon="3.07081">
        <ele>3.4</ele>
        <time>2022-12-31T14:55:26Z</time>
      </trkpt>
      <trkpt lat="43.0495" lon="3.07075">
        <ele>3.4</ele>
        <time>2022-12-31T14:55:29Z</time>
      </trkpt>
      <trkpt lat="43.04936" lon="3.07063">
        <ele>3.2</ele>
        <time>2022-12-31T14:55:35Z</time>
      </trkpt>
      <trkpt lat="43.04929" lon="3.07057">
        <ele>3.2</ele>
        <time>2022-12-31T14:55:38Z</time>
      </trkpt>
      <trkpt lat="43.04927" lon="3.07051">
        <ele>3.2</ele>
        <time>2022-12-31T14:55:40Z</time>
      </trkpt>
      <trkpt lat="43.04917" lon="3.07044">
        <ele>3.2</ele>
        <time>2022-12-31T14:55:44Z</time>
      </trkpt>
      <trkpt lat="43.04914" lon="3.07042">
        <ele>3.2</ele>
        <time>2022-12-31T14:55:45Z</time>
      </trkpt>
      <trkpt lat="43.04909" lon="3.07039">
        <ele>3.2</ele>
        <time>2022-12-31T14:55:47Z</time>
      </trkpt>
      <trkpt lat="43.04907" lon="3.07039">
        <ele>3.4</ele>
        <time>2022-12-31T14:55:48Z</time>
      </trkpt>
      <trkpt lat="43.04906" lon="3.0704">
        <ele>3.8</ele>
        <time>2022-12-31T14:55:51Z</time>
      </trkpt>
      <trkpt lat="43.04906" lon="3.0704">
        <ele>4.2</ele>
        <time>2022-12-31T14:55:52Z</time>
      </trkpt>
      <trkpt lat="43.04902" lon="3.07047">
        <ele>5.2</ele>
        <time>2022-12-31T14:58:17Z</time>
      </trkpt>
      <trkpt lat="43.04899" lon="3.07051">
        <ele>5.2</ele>
        <time>2022-12-31T14:58:20Z</time>
      </trkpt>
      <trkpt lat="43.04896" lon="3.07056">
        <ele>5.2</ele>
        <time>2022-12-31T14:58:24Z</time>
      </trkpt>
      <trkpt lat="43.04897" lon="3.07061">
        <ele>5.2</ele>
        <time>2022-12-31T14:58:26Z</time>
      </trkpt>
      <trkpt lat="43.04896" lon="3.0707">
        <ele>5</ele>
        <time>2022-12-31T14:58:29Z</time>
      </trkpt>
      <trkpt lat="43.04895" lon="3.07072">
        <ele>5</ele>
        <time>2022-12-31T14:58:30Z</time>
      </trkpt>
      <trkpt lat="43.04893" lon="3.07072">
        <ele>4.6</ele>
        <time>2022-12-31T14:58:31Z</time>
      </trkpt>
      <trkpt lat="43.04891" lon="3.0707">
        <ele>4</ele>
        <time>2022-12-31T14:58:33Z</time>
      </trkpt>
      <trkpt lat="43.0489" lon="3.07069">
        <ele>4</ele>
        <time>2022-12-31T14:58:34Z</time>
      </trkpt>
      <trkpt lat="43.04889" lon="3.07066">
        <ele>3</ele>
        <time>2022-12-31T14:58:38Z</time>
      </trkpt>
      <trkpt lat="43.04889" lon="3.07066">
        <ele>3</ele>
        <time>2022-12-31T14:58:39Z</time>
      </trkpt>
      <trkpt lat="43.04882" lon="3.07066">
        <ele>2.6</ele>
        <time>2022-12-31T15:00:11Z</time>
      </trkpt>
      <trkpt lat="43.04877" lon="3.07065">
        <ele>2.6</ele>
        <time>2022-12-31T15:00:14Z</time>
      </trkpt>
      <trkpt lat="43.04859" lon="3.07061">
        <ele>2.4</ele>
        <time>2022-12-31T15:00:22Z</time>
      </trkpt>
      <trkpt lat="43.04845" lon="3.07062">
        <ele>2.6</ele>
        <time>2022-12-31T15:00:28Z</time>
      </trkpt>
      <trkpt lat="43.04827" lon="3.07061">
        <ele>2.6</ele>
        <time>2022-12-31T15:00:35Z</time>
      </trkpt>
      <trkpt lat="43.04809" lon="3.07055">
        <ele>2.6</ele>
        <time>2022-12-31T15:00:42Z</time>
      </trkpt>
      <trkpt lat="43.04787" lon="3.07037">
        <ele>2.6</ele>
        <time>2022-12-31T15:00:52Z</time>
      </trkpt>
      <trkpt lat="43.04769" lon="3.07021">
        <ele>2.6</ele>
        <time>2022-12-31T15:01:01Z</time>
      </trkpt>
      <trkpt lat="43.04747" lon="3.07003">
        <ele>2.8</ele>
        <time>2022-12-31T15:01:12Z</time>
      </trkpt>
      <trkpt lat="43.04724" lon="3.06984">
        <ele>2.6</ele>
        <time>2022-12-31T15:01:24Z</time>
      </trkpt>
      <trkpt lat="43.04708" lon="3.06969">
        <ele>2.6</ele>
        <time>2022-12-31T15:01:33Z</time>
      </trkpt>
      <trkpt lat="43.04692" lon="3.06954">
        <ele>2.8</ele>
        <time>2022-12-31T15:01:42Z</time>
      </trkpt>
      <trkpt lat="43.04674" lon="3.06941">
        <ele>2.6</ele>
        <time>2022-12-31T15:01:51Z</time>
      </trkpt>
      <trkpt lat="43.04663" lon="3.06929">
        <ele>2.8</ele>
        <time>2022-12-31T15:01:58Z</time>
      </trkpt>
      <trkpt lat="43.04643" lon="3.0691">
        <ele>2.8</ele>
        <time>2022-12-31T15:02:08Z</time>
      </trkpt>
      <trkpt lat="43.04625" lon="3.06894">
        <ele>2.8</ele>
        <time>2022-12-31T15:02:15Z</time>
      </trkpt>
      <trkpt lat="43.046" lon="3.06869">
        <ele>2.6</ele>
        <time>2022-12-31T15:02:25Z</time>
      </trkpt>
      <trkpt lat="43.04578" lon="3.06846">
        <ele>2.8</ele>
        <time>2022-12-31T15:02:34Z</time>
      </trkpt>
      <trkpt lat="43.04577" lon="3.06846">
        <ele>2.8</ele>
        <time>2022-12-31T15:02:37Z</time>
      </trkpt>
      <trkpt lat="43.04579" lon="3.06849">
        <ele>2.4</ele>
        <time>2022-12-31T15:05:23Z</time>
      </trkpt>
      <trkpt lat="43.04585" lon="3.06854">
        <ele>2.2</ele>
        <time>2022-12-31T15:05:26Z</time>
      </trkpt>
      <trkpt lat="43.04602" lon="3.06872">
        <ele>2.4</ele>
        <time>2022-12-31T15:05:34Z</time>
      </trkpt>
      <trkpt lat="43.04619" lon="3.0689">
        <ele>2.6</ele>
        <time>2022-12-31T15:05:42Z</time>
      </trkpt>
      <trkpt lat="43.04639" lon="3.06909">
        <ele>2.6</ele>
        <time>2022-12-31T15:05:51Z</time>
      </trkpt>
      <trkpt lat="43.0466" lon="3.06931">
        <ele>2.6</ele>
        <time>2022-12-31T15:06:01Z</time>
      </trkpt>
      <trkpt lat="43.0468" lon="3.06947">
        <ele>2.4</ele>
        <time>2022-12-31T15:06:11Z</time>
      </trkpt>
      <trkpt lat="43.04693" lon="3.06959">
        <ele>2.6</ele>
        <time>2022-12-31T15:06:18Z</time>
      </trkpt>
      <trkpt lat="43.0471" lon="3.06974">
        <ele>2.6</ele>
        <time>2022-12-31T15:06:27Z</time>
      </trkpt>
      <trkpt lat="43.0473" lon="3.06992">
        <ele>2.6</ele>
        <time>2022-12-31T15:06:37Z</time>
      </trkpt>
      <trkpt lat="43.04752" lon="3.0701">
        <ele>2.6</ele>
        <time>2022-12-31T15:06:47Z</time>
      </trkpt>
      <trkpt lat="43.04772" lon="3.07028">
        <ele>2.8</ele>
        <time>2022-12-31T15:06:57Z</time>
      </trkpt>
      <trkpt lat="43.04795" lon="3.07047">
        <ele>2.4</ele>
        <time>2022-12-31T15:07:08Z</time>
      </trkpt>
      <trkpt lat="43.04817" lon="3.07062">
        <ele>2.4</ele>
        <time>2022-12-31T15:07:18Z</time>
      </trkpt>
      <trkpt lat="43.04836" lon="3.07067">
        <ele>2.4</ele>
        <time>2022-12-31T15:07:25Z</time>
      </trkpt>
      <trkpt lat="43.04841" lon="3.07066">
        <ele>2.6</ele>
        <time>2022-12-31T15:07:27Z</time>
      </trkpt>
      <trkpt lat="43.04861" lon="3.07063">
        <ele>2.6</ele>
        <time>2022-12-31T15:07:36Z</time>
      </trkpt>
      <trkpt lat="43.04883" lon="3.07072">
        <ele>2.6</ele>
        <time>2022-12-31T15:07:48Z</time>
      </trkpt>
      <trkpt lat="43.04894" lon="3.07081">
        <ele>2.6</ele>
        <time>2022-12-31T15:07:57Z</time>
      </trkpt>
      <trkpt lat="43.04897" lon="3.0708">
        <ele>2.6</ele>
        <time>2022-12-31T15:07:59Z</time>
      </trkpt>
      <trkpt lat="43.04898" lon="3.07075">
        <ele>2.6</ele>
        <time>2022-12-31T15:08:01Z</time>
      </trkpt>
      <trkpt lat="43.04897" lon="3.07061">
        <ele>2.4</ele>
        <time>2022-12-31T15:08:06Z</time>
      </trkpt>
      <trkpt lat="43.04897" lon="3.07053">
        <ele>3</ele>
        <time>2022-12-31T15:08:10Z</time>
      </trkpt>
      <trkpt lat="43.04898" lon="3.07052">
        <ele>3.2</ele>
        <time>2022-12-31T15:08:11Z</time>
      </trkpt>
      <trkpt lat="43.049" lon="3.07051">
        <ele>3.4</ele>
        <time>2022-12-31T15:08:13Z</time>
      </trkpt>
      <trkpt lat="43.04901" lon="3.07049">
        <ele>4</ele>
        <time>2022-12-31T15:08:16Z</time>
      </trkpt>
      <trkpt lat="43.04901" lon="3.07049">
        <ele>4</ele>
        <time>2022-12-31T15:08:17Z</time>
      </trkpt>
      <trkpt lat="43.04905" lon="3.07042">
        <ele>4.4</ele>
        <time>2022-12-31T15:08:54Z</time>
      </trkpt>
      <trkpt lat="43.04908" lon="3.07037">
        <ele>4.4</ele>
        <time>2022-12-31T15:08:56Z</time>
      </trkpt>
      <trkpt lat="43.04918" lon="3.0702">
        <ele>4.4</ele>
        <time>2022-12-31T15:09:03Z</time>
      </trkpt>
      <trkpt lat="43.04931" lon="3.06991">
        <ele>4.4</ele>
        <time>2022-12-31T15:09:12Z</time>
      </trkpt>
      <trkpt lat="43.04948" lon="3.06959">
        <ele>4.4</ele>
        <time>2022-12-31T15:09:22Z</time>
      </trkpt>
      <trkpt lat="43.04962" lon="3.06928">
        <ele>4.4</ele>
        <time>2022-12-31T15:09:31Z</time>
      </trkpt>
      <trkpt lat="43.04982" lon="3.06886">
        <ele>4.2</ele>
        <time>2022-12-31T15:09:43Z</time>
      </trkpt>
      <trkpt lat="43.04998" lon="3.06851">
        <ele>4.2</ele>
        <time>2022-12-31T15:09:53Z</time>
      </trkpt>
      <trkpt lat="43.05009" lon="3.06826">
        <ele>4.2</ele>
        <time>2022-12-31T15:10:02Z</time>
      </trkpt>
      <trkpt lat="43.0501" lon="3.06816">
        <ele>4.2</ele>
        <time>2022-12-31T15:10:06Z</time>
      </trkpt>
      <trkpt lat="43.05009" lon="3.06813">
        <ele>4.2</ele>
        <time>2022-12-31T15:10:07Z</time>
      </trkpt>
      <trkpt lat="43.04996" lon="3.06804">
        <ele>3.8</ele>
        <time>2022-12-31T15:10:12Z</time>
      </trkpt>
      <trkpt lat="43.0498" lon="3.06794">
        <ele>3.4</ele>
        <time>2022-12-31T15:10:17Z</time>
      </trkpt>
      <trkpt lat="43.04967" lon="3.06785">
        <ele>3.2</ele>
        <time>2022-12-31T15:10:21Z</time>
      </trkpt>
      <trkpt lat="43.04935" lon="3.06764">
        <ele>2.8</ele>
        <time>2022-12-31T15:10:31Z</time>
      </trkpt>
      <trkpt lat="43.04914" lon="3.06752">
        <ele>2.6</ele>
        <time>2022-12-31T15:10:38Z</time>
      </trkpt>
      <trkpt lat="43.04902" lon="3.06744">
        <ele>2.4</ele>
        <time>2022-12-31T15:10:42Z</time>
      </trkpt>
      <trkpt lat="43.0489" lon="3.06737">
        <ele>2.4</ele>
        <time>2022-12-31T15:10:46Z</time>
      </trkpt>
      <trkpt lat="43.04859" lon="3.06717">
        <ele>2.4</ele>
        <time>2022-12-31T15:10:55Z</time>
      </trkpt>
      <trkpt lat="43.04813" lon="3.06687">
        <ele>2.2</ele>
        <time>2022-12-31T15:11:08Z</time>
      </trkpt>
      <trkpt lat="43.04771" lon="3.06661">
        <ele>2.2</ele>
        <time>2022-12-31T15:11:19Z</time>
      </trkpt>
      <trkpt lat="43.04748" lon="3.06646">
        <ele>2.2</ele>
        <time>2022-12-31T15:11:25Z</time>
      </trkpt>
      <trkpt lat="43.04729" lon="3.06634">
        <ele>2.2</ele>
        <time>2022-12-31T15:11:30Z</time>
      </trkpt>
      <trkpt lat="43.04679" lon="3.06602">
        <ele>1.8</ele>
        <time>2022-12-31T15:11:43Z</time>
      </trkpt>
      <trkpt lat="43.04675" lon="3.06599">
        <ele>1.8</ele>
        <time>2022-12-31T15:11:44Z</time>
      </trkpt>
      <trkpt lat="43.04637" lon="3.06574">
        <ele>1.8</ele>
        <time>2022-12-31T15:11:54Z</time>
      </trkpt>
      <trkpt lat="43.04597" lon="3.06549">
        <ele>1.8</ele>
        <time>2022-12-31T15:12:04Z</time>
      </trkpt>
      <trkpt lat="43.04563" lon="3.06527">
        <ele>1.8</ele>
        <time>2022-12-31T15:12:13Z</time>
      </trkpt>
      <trkpt lat="43.04525" lon="3.06501">
        <ele>1.6</ele>
        <time>2022-12-31T15:12:23Z</time>
      </trkpt>
      <trkpt lat="43.04521" lon="3.06499">
        <ele>1.6</ele>
        <time>2022-12-31T15:12:24Z</time>
      </trkpt>
      <trkpt lat="43.04486" lon="3.06476">
        <ele>1.6</ele>
        <time>2022-12-31T15:12:33Z</time>
      </trkpt>
      <trkpt lat="43.04434" lon="3.06442">
        <ele>1.6</ele>
        <time>2022-12-31T15:12:46Z</time>
      </trkpt>
      <trkpt lat="43.04387" lon="3.06412">
        <ele>1.6</ele>
        <time>2022-12-31T15:12:58Z</time>
      </trkpt>
      <trkpt lat="43.04375" lon="3.06404">
        <ele>1.4</ele>
        <time>2022-12-31T15:13:01Z</time>
      </trkpt>
      <trkpt lat="43.04356" lon="3.06391">
        <ele>1.4</ele>
        <time>2022-12-31T15:13:06Z</time>
      </trkpt>
      <trkpt lat="43.04322" lon="3.06371">
        <ele>1.6</ele>
        <time>2022-12-31T15:13:15Z</time>
      </trkpt>
      <trkpt lat="43.04307" lon="3.06362">
        <ele>1.6</ele>
        <time>2022-12-31T15:13:19Z</time>
      </trkpt>
      <trkpt lat="43.04297" lon="3.06353">
        <ele>1.6</ele>
        <time>2022-12-31T15:13:22Z</time>
      </trkpt>
      <trkpt lat="43.04277" lon="3.0634">
        <ele>1.6</ele>
        <time>2022-12-31T15:13:28Z</time>
      </trkpt>
      <trkpt lat="43.04253" lon="3.06324">
        <ele>1.6</ele>
        <time>2022-12-31T15:13:35Z</time>
      </trkpt>
      <trkpt lat="43.04216" lon="3.06302">
        <ele>1.6</ele>
        <time>2022-12-31T15:13:45Z</time>
      </trkpt>
      <trkpt lat="43.04175" lon="3.06276">
        <ele>1.6</ele>
        <time>2022-12-31T15:13:56Z</time>
      </trkpt>
      <trkpt lat="43.04126" lon="3.06243">
        <ele>1.8</ele>
        <time>2022-12-31T15:14:09Z</time>
      </trkpt>
      <trkpt lat="43.04122" lon="3.06241">
        <ele>1.8</ele>
        <time>2022-12-31T15:14:10Z</time>
      </trkpt>
      <trkpt lat="43.04118" lon="3.06239">
        <ele>1.8</ele>
        <time>2022-12-31T15:14:11Z</time>
      </trkpt>
      <trkpt lat="43.04095" lon="3.06223">
        <ele>1.8</ele>
        <time>2022-12-31T15:14:17Z</time>
      </trkpt>
      <trkpt lat="43.04053" lon="3.06196">
        <ele>1.8</ele>
        <time>2022-12-31T15:14:28Z</time>
      </trkpt>
      <trkpt lat="43.04012" lon="3.06169">
        <ele>1.8</ele>
        <time>2022-12-31T15:14:39Z</time>
      </trkpt>
      <trkpt lat="43.03968" lon="3.06139">
        <ele>2</ele>
        <time>2022-12-31T15:14:51Z</time>
      </trkpt>
      <trkpt lat="43.03937" lon="3.06119">
        <ele>2.2</ele>
        <time>2022-12-31T15:14:59Z</time>
      </trkpt>
      <trkpt lat="43.039" lon="3.06095">
        <ele>2.2</ele>
        <time>2022-12-31T15:15:09Z</time>
      </trkpt>
      <trkpt lat="43.03873" lon="3.06078">
        <ele>2.2</ele>
        <time>2022-12-31T15:15:16Z</time>
      </trkpt>
      <trkpt lat="43.03862" lon="3.06071">
        <ele>2.2</ele>
        <time>2022-12-31T15:15:19Z</time>
      </trkpt>
      <trkpt lat="43.03823" lon="3.06045">
        <ele>2.2</ele>
        <time>2022-12-31T15:15:29Z</time>
      </trkpt>
      <trkpt lat="43.03792" lon="3.06025">
        <ele>2.4</ele>
        <time>2022-12-31T15:15:37Z</time>
      </trkpt>
      <trkpt lat="43.03753" lon="3.05999">
        <ele>2.2</ele>
        <time>2022-12-31T15:15:47Z</time>
      </trkpt>
      <trkpt lat="43.03702" lon="3.05968">
        <ele>2.2</ele>
        <time>2022-12-31T15:16:00Z</time>
      </trkpt>
      <trkpt lat="43.03653" lon="3.05936">
        <ele>2.2</ele>
        <time>2022-12-31T15:16:13Z</time>
      </trkpt>
      <trkpt lat="43.03613" lon="3.05911">
        <ele>2.2</ele>
        <time>2022-12-31T15:16:23Z</time>
      </trkpt>
      <trkpt lat="43.03601" lon="3.05903">
        <ele>2.2</ele>
        <time>2022-12-31T15:16:26Z</time>
      </trkpt>
      <trkpt lat="43.03589" lon="3.05897">
        <ele>2.2</ele>
        <time>2022-12-31T15:16:29Z</time>
      </trkpt>
      <trkpt lat="43.03556" lon="3.05877">
        <ele>1.8</ele>
        <time>2022-12-31T15:16:38Z</time>
      </trkpt>
      <trkpt lat="43.03519" lon="3.05853">
        <ele>1.8</ele>
        <time>2022-12-31T15:16:47Z</time>
      </trkpt>
      <trkpt lat="43.03482" lon="3.05829">
        <ele>1.8</ele>
        <time>2022-12-31T15:16:57Z</time>
      </trkpt>
      <trkpt lat="43.03474" lon="3.05825">
        <ele>2</ele>
        <time>2022-12-31T15:16:59Z</time>
      </trkpt>
      <trkpt lat="43.03464" lon="3.05819">
        <ele>1.8</ele>
        <time>2022-12-31T15:17:02Z</time>
      </trkpt>
      <trkpt lat="43.03432" lon="3.05797">
        <ele>2</ele>
        <time>2022-12-31T15:17:11Z</time>
      </trkpt>
      <trkpt lat="43.03398" lon="3.05775">
        <ele>2.2</ele>
        <time>2022-12-31T15:17:21Z</time>
      </trkpt>
      <trkpt lat="43.03372" lon="3.05757">
        <ele>1.8</ele>
        <time>2022-12-31T15:17:30Z</time>
      </trkpt>
      <trkpt lat="43.03333" lon="3.05731">
        <ele>2</ele>
        <time>2022-12-31T15:17:42Z</time>
      </trkpt>
      <trkpt lat="43.03295" lon="3.05707">
        <ele>2</ele>
        <time>2022-12-31T15:17:53Z</time>
      </trkpt>
      <trkpt lat="43.03262" lon="3.05686">
        <ele>2</ele>
        <time>2022-12-31T15:18:02Z</time>
      </trkpt>
      <trkpt lat="43.03254" lon="3.0568">
        <ele>1.8</ele>
        <time>2022-12-31T15:18:04Z</time>
      </trkpt>
      <trkpt lat="43.03243" lon="3.05674">
        <ele>1.6</ele>
        <time>2022-12-31T15:18:07Z</time>
      </trkpt>
      <trkpt lat="43.03236" lon="3.0567">
        <ele>1.8</ele>
        <time>2022-12-31T15:18:09Z</time>
      </trkpt>
      <trkpt lat="43.03194" lon="3.05642">
        <ele>2</ele>
        <time>2022-12-31T15:18:21Z</time>
      </trkpt>
      <trkpt lat="43.03151" lon="3.05613">
        <ele>2</ele>
        <time>2022-12-31T15:18:33Z</time>
      </trkpt>
      <trkpt lat="43.03111" lon="3.05588">
        <ele>2</ele>
        <time>2022-12-31T15:18:44Z</time>
      </trkpt>
      <trkpt lat="43.03085" lon="3.05572">
        <ele>2</ele>
        <time>2022-12-31T15:18:53Z</time>
      </trkpt>
      <trkpt lat="43.03082" lon="3.05571">
        <ele>2</ele>
        <time>2022-12-31T15:18:54Z</time>
      </trkpt>
      <trkpt lat="43.03075" lon="3.05568">
        <ele>2</ele>
        <time>2022-12-31T15:18:57Z</time>
      </trkpt>
      <trkpt lat="43.03062" lon="3.05561">
        <ele>2</ele>
        <time>2022-12-31T15:19:03Z</time>
      </trkpt>
      <trkpt lat="43.03056" lon="3.0556">
        <ele>2.2</ele>
        <time>2022-12-31T15:19:07Z</time>
      </trkpt>
      <trkpt lat="43.03056" lon="3.05561">
        <ele>2.2</ele>
        <time>2022-12-31T15:19:08Z</time>
      </trkpt>
      <trkpt lat="43.03054" lon="3.05567">
        <ele>2.4</ele>
        <time>2022-12-31T15:19:14Z</time>
      </trkpt>
      <trkpt lat="43.03054" lon="3.05568">
        <ele>2.6</ele>
        <time>2022-12-31T15:19:17Z</time>
      </trkpt>
      <trkpt lat="43.03056" lon="3.05565">
        <ele>2.2</ele>
        <time>2022-12-31T15:19:33Z</time>
      </trkpt>
      <trkpt lat="43.03058" lon="3.05563">
        <ele>2.2</ele>
        <time>2022-12-31T15:19:35Z</time>
      </trkpt>
      <trkpt lat="43.03061" lon="3.05563">
        <ele>2.4</ele>
        <time>2022-12-31T15:19:39Z</time>
      </trkpt>
      <trkpt lat="43.03061" lon="3.05563">
        <ele>2.4</ele>
        <time>2022-12-31T15:19:40Z</time>
      </trkpt>
      <trkpt lat="43.03061" lon="3.05574">
        <ele>2</ele>
        <time>2022-12-31T15:19:53Z</time>
      </trkpt>
      <trkpt lat="43.03061" lon="3.05582">
        <ele>2.2</ele>
        <time>2022-12-31T15:19:56Z</time>
      </trkpt>
      <trkpt lat="43.03063" lon="3.05603">
        <ele>2.4</ele>
        <time>2022-12-31T15:20:02Z</time>
      </trkpt>
      <trkpt lat="43.03065" lon="3.05629">
        <ele>2.8</ele>
        <time>2022-12-31T15:20:09Z</time>
      </trkpt>
      <trkpt lat="43.03066" lon="3.05634">
        <ele>2.8</ele>
        <time>2022-12-31T15:20:10Z</time>
      </trkpt>
      <trkpt lat="43.0307" lon="3.05678">
        <ele>3</ele>
        <time>2022-12-31T15:20:20Z</time>
      </trkpt>
      <trkpt lat="43.03075" lon="3.05731">
        <ele>3</ele>
        <time>2022-12-31T15:20:31Z</time>
      </trkpt>
      <trkpt lat="43.03079" lon="3.05779">
        <ele>3.2</ele>
        <time>2022-12-31T15:20:40Z</time>
      </trkpt>
      <trkpt lat="43.03077" lon="3.05811">
        <ele>3.2</ele>
        <time>2022-12-31T15:20:46Z</time>
      </trkpt>
      <trkpt lat="43.03067" lon="3.05862">
        <ele>3.2</ele>
        <time>2022-12-31T15:20:56Z</time>
      </trkpt>
      <trkpt lat="43.03053" lon="3.05911">
        <ele>3.2</ele>
        <time>2022-12-31T15:21:07Z</time>
      </trkpt>
      <trkpt lat="43.03044" lon="3.05937">
        <ele>3.2</ele>
        <time>2022-12-31T15:21:14Z</time>
      </trkpt>
      <trkpt lat="43.03035" lon="3.05967">
        <ele>3.2</ele>
        <time>2022-12-31T15:21:22Z</time>
      </trkpt>
      <trkpt lat="43.03024" lon="3.05997">
        <ele>3</ele>
        <time>2022-12-31T15:21:31Z</time>
      </trkpt>
      <trkpt lat="43.03016" lon="3.06021">
        <ele>3</ele>
        <time>2022-12-31T15:21:38Z</time>
      </trkpt>
      <trkpt lat="43.03009" lon="3.06039">
        <ele>3.2</ele>
        <time>2022-12-31T15:21:45Z</time>
      </trkpt>
      <trkpt lat="43.03001" lon="3.06059">
        <ele>3.4</ele>
        <time>2022-12-31T15:21:52Z</time>
      </trkpt>
      <trkpt lat="43.02993" lon="3.06077">
        <ele>3.8</ele>
        <time>2022-12-31T15:21:58Z</time>
      </trkpt>
      <trkpt lat="43.02992" lon="3.0608">
        <ele>3.8</ele>
        <time>2022-12-31T15:21:59Z</time>
      </trkpt>
      <trkpt lat="43.02991" lon="3.06084">
        <ele>4</ele>
        <time>2022-12-31T15:22:04Z</time>
      </trkpt>
      <trkpt lat="43.02989" lon="3.06095">
        <ele>3.8</ele>
        <time>2022-12-31T15:23:26Z</time>
      </trkpt>
      <trkpt lat="43.02989" lon="3.061">
        <ele>3.8</ele>
        <time>2022-12-31T15:23:28Z</time>
      </trkpt>
      <trkpt lat="43.02989" lon="3.06109">
        <ele>3.8</ele>
        <time>2022-12-31T15:23:31Z</time>
      </trkpt>
      <trkpt lat="43.02987" lon="3.06114">
        <ele>3.8</ele>
        <time>2022-12-31T15:23:33Z</time>
      </trkpt>
      <trkpt lat="43.02973" lon="3.06144">
        <ele>3.6</ele>
        <time>2022-12-31T15:23:42Z</time>
      </trkpt>
      <trkpt lat="43.02955" lon="3.06185">
        <ele>3.6</ele>
        <time>2022-12-31T15:23:52Z</time>
      </trkpt>
      <trkpt lat="43.02937" lon="3.06225">
        <ele>3.6</ele>
        <time>2022-12-31T15:24:02Z</time>
      </trkpt>
      <trkpt lat="43.02923" lon="3.06256">
        <ele>3.6</ele>
        <time>2022-12-31T15:24:09Z</time>
      </trkpt>
      <trkpt lat="43.02905" lon="3.06294">
        <ele>3.6</ele>
        <time>2022-12-31T15:24:18Z</time>
      </trkpt>
      <trkpt lat="43.02882" lon="3.06345">
        <ele>3.8</ele>
        <time>2022-12-31T15:24:30Z</time>
      </trkpt>
      <trkpt lat="43.02866" lon="3.06379">
        <ele>3.6</ele>
        <time>2022-12-31T15:24:39Z</time>
      </trkpt>
      <trkpt lat="43.02852" lon="3.0641">
        <ele>3.6</ele>
        <time>2022-12-31T15:24:48Z</time>
      </trkpt>
      <trkpt lat="43.02834" lon="3.06449">
        <ele>3.6</ele>
        <time>2022-12-31T15:24:59Z</time>
      </trkpt>
      <trkpt lat="43.02821" lon="3.06477">
        <ele>3.6</ele>
        <time>2022-12-31T15:25:07Z</time>
      </trkpt>
      <trkpt lat="43.02804" lon="3.06512">
        <ele>3.8</ele>
        <time>2022-12-31T15:25:17Z</time>
      </trkpt>
      <trkpt lat="43.02788" lon="3.06548">
        <ele>3.8</ele>
        <time>2022-12-31T15:25:27Z</time>
      </trkpt>
      <trkpt lat="43.02775" lon="3.06578">
        <ele>3.8</ele>
        <time>2022-12-31T15:25:35Z</time>
      </trkpt>
      <trkpt lat="43.0276" lon="3.06607">
        <ele>3.8</ele>
        <time>2022-12-31T15:25:45Z</time>
      </trkpt>
      <trkpt lat="43.02754" lon="3.06614">
        <ele>3.6</ele>
        <time>2022-12-31T15:25:50Z</time>
      </trkpt>
      <trkpt lat="43.02753" lon="3.06615">
        <ele>3.6</ele>
        <time>2022-12-31T15:25:53Z</time>
      </trkpt>
      <trkpt lat="43.02748" lon="3.06621">
        <ele>3.4</ele>
        <time>2022-12-31T15:26:10Z</time>
      </trkpt>
      <trkpt lat="43.02748" lon="3.06624">
        <ele>3.4</ele>
        <time>2022-12-31T15:26:11Z</time>
      </trkpt>
      <trkpt lat="43.02747" lon="3.06639">
        <ele>3.6</ele>
        <time>2022-12-31T15:26:17Z</time>
      </trkpt>
      <trkpt lat="43.02749" lon="3.06639">
        <ele>3.6</ele>
        <time>2022-12-31T15:26:20Z</time>
      </trkpt>
      <trkpt lat="43.02749" lon="3.06637">
        <ele>3.6</ele>
        <time>2022-12-31T15:26:21Z</time>
      </trkpt>
      <trkpt lat="43.02747" lon="3.06636">
        <ele>3.6</ele>
        <time>2022-12-31T15:26:23Z</time>
      </trkpt>
      <trkpt lat="43.02747" lon="3.06635">
        <ele>3.6</ele>
        <time>2022-12-31T15:26:25Z</time>
      </trkpt>
      <trkpt lat="43.02746" lon="3.06631">
        <ele>3.6</ele>
        <time>2022-12-31T15:26:28Z</time>
      </trkpt>
      <trkpt lat="43.02741" lon="3.06622">
        <ele>3.4</ele>
        <time>2022-12-31T15:26:36Z</time>
      </trkpt>
      <trkpt lat="43.02737" lon="3.06615">
        <ele>3.4</ele>
        <time>2022-12-31T15:26:43Z</time>
      </trkpt>
      <trkpt lat="43.02737" lon="3.06615">
        <ele>3.4</ele>
        <time>2022-12-31T15:26:44Z</time>
      </trkpt>
      <trkpt lat="43.02744" lon="3.06614">
        <ele>3.6</ele>
        <time>2022-12-31T15:42:18Z</time>
      </trkpt>
      <trkpt lat="43.02748" lon="3.06612">
        <ele>3.8</ele>
        <time>2022-12-31T15:42:20Z</time>
      </trkpt>
      <trkpt lat="43.02761" lon="3.06603">
        <ele>3.8</ele>
        <time>2022-12-31T15:42:25Z</time>
      </trkpt>
      <trkpt lat="43.02773" lon="3.06578">
        <ele>3.6</ele>
        <time>2022-12-31T15:42:31Z</time>
      </trkpt>
      <trkpt lat="43.02787" lon="3.06549">
        <ele>3.4</ele>
        <time>2022-12-31T15:42:39Z</time>
      </trkpt>
      <trkpt lat="43.02804" lon="3.06512">
        <ele>3.6</ele>
        <time>2022-12-31T15:42:48Z</time>
      </trkpt>
      <trkpt lat="43.02827" lon="3.06462">
        <ele>3.8</ele>
        <time>2022-12-31T15:42:59Z</time>
      </trkpt>
      <trkpt lat="43.02848" lon="3.06415">
        <ele>3.8</ele>
        <time>2022-12-31T15:43:09Z</time>
      </trkpt>
      <trkpt lat="43.02869" lon="3.06373">
        <ele>3.6</ele>
        <time>2022-12-31T15:43:18Z</time>
      </trkpt>
      <trkpt lat="43.0289" lon="3.06327">
        <ele>3.6</ele>
        <time>2022-12-31T15:43:28Z</time>
      </trkpt>
      <trkpt lat="43.02901" lon="3.06302">
        <ele>3.6</ele>
        <time>2022-12-31T15:43:34Z</time>
      </trkpt>
      <trkpt lat="43.02906" lon="3.0629">
        <ele>3.6</ele>
        <time>2022-12-31T15:43:39Z</time>
      </trkpt>
      <trkpt lat="43.0292" lon="3.0626">
        <ele>3.4</ele>
        <time>2022-12-31T15:43:50Z</time>
      </trkpt>
      <trkpt lat="43.02932" lon="3.06229">
        <ele>3.4</ele>
        <time>2022-12-31T15:44:00Z</time>
      </trkpt>
      <trkpt lat="43.02939" lon="3.06208">
        <ele>3.4</ele>
        <time>2022-12-31T15:44:04Z</time>
      </trkpt>
      <trkpt lat="43.02954" lon="3.06177">
        <ele>3.2</ele>
        <time>2022-12-31T15:44:11Z</time>
      </trkpt>
      <trkpt lat="43.02968" lon="3.06146">
        <ele>3.4</ele>
        <time>2022-12-31T15:44:18Z</time>
      </trkpt>
      <trkpt lat="43.02978" lon="3.06123">
        <ele>3.4</ele>
        <time>2022-12-31T15:44:23Z</time>
      </trkpt>
      <trkpt lat="43.02988" lon="3.061">
        <ele>3.4</ele>
        <time>2022-12-31T15:44:29Z</time>
      </trkpt>
      <trkpt lat="43.02994" lon="3.06081">
        <ele>3.8</ele>
        <time>2022-12-31T15:44:34Z</time>
      </trkpt>
      <trkpt lat="43.02997" lon="3.06073">
        <ele>3.8</ele>
        <time>2022-12-31T15:44:36Z</time>
      </trkpt>
      <trkpt lat="43.03002" lon="3.06056">
        <ele>4</ele>
        <time>2022-12-31T15:44:41Z</time>
      </trkpt>
      <trkpt lat="43.03016" lon="3.06017">
        <ele>3.6</ele>
        <time>2022-12-31T15:44:52Z</time>
      </trkpt>
      <trkpt lat="43.03028" lon="3.05982">
        <ele>3.2</ele>
        <time>2022-12-31T15:45:01Z</time>
      </trkpt>
      <trkpt lat="43.03037" lon="3.05953">
        <ele>2.6</ele>
        <time>2022-12-31T15:45:08Z</time>
      </trkpt>
      <trkpt lat="43.03041" lon="3.0594">
        <ele>2.6</ele>
        <time>2022-12-31T15:45:11Z</time>
      </trkpt>
      <trkpt lat="43.03051" lon="3.05903">
        <ele>2.6</ele>
        <time>2022-12-31T15:45:20Z</time>
      </trkpt>
      <trkpt lat="43.03061" lon="3.05866">
        <ele>2.4</ele>
        <time>2022-12-31T15:45:29Z</time>
      </trkpt>
      <trkpt lat="43.03071" lon="3.05818">
        <ele>2.4</ele>
        <time>2022-12-31T15:45:40Z</time>
      </trkpt>
      <trkpt lat="43.03075" lon="3.05786">
        <ele>2.6</ele>
        <time>2022-12-31T15:45:47Z</time>
      </trkpt>
      <trkpt lat="43.03072" lon="3.05738">
        <ele>2.4</ele>
        <time>2022-12-31T15:45:57Z</time>
      </trkpt>
      <trkpt lat="43.03067" lon="3.05682">
        <ele>2.2</ele>
        <time>2022-12-31T15:46:08Z</time>
      </trkpt>
      <trkpt lat="43.03063" lon="3.05633">
        <ele>2.4</ele>
        <time>2022-12-31T15:46:18Z</time>
      </trkpt>
      <trkpt lat="43.0306" lon="3.05592">
        <ele>2.4</ele>
        <time>2022-12-31T15:46:26Z</time>
      </trkpt>
      <trkpt lat="43.03055" lon="3.05545">
        <ele>2.4</ele>
        <time>2022-12-31T15:46:35Z</time>
      </trkpt>
      <trkpt lat="43.0305" lon="3.05479">
        <ele>2.4</ele>
        <time>2022-12-31T15:46:47Z</time>
      </trkpt>
      <trkpt lat="43.03044" lon="3.05425">
        <ele>2.2</ele>
        <time>2022-12-31T15:46:57Z</time>
      </trkpt>
      <trkpt lat="43.03039" lon="3.05369">
        <ele>2.4</ele>
        <time>2022-12-31T15:47:07Z</time>
      </trkpt>
      <trkpt lat="43.03035" lon="3.05307">
        <ele>2.2</ele>
        <time>2022-12-31T15:47:18Z</time>
      </trkpt>
      <trkpt lat="43.03036" lon="3.05267">
        <ele>2.2</ele>
        <time>2022-12-31T15:47:25Z</time>
      </trkpt>
      <trkpt lat="43.03049" lon="3.05219">
        <ele>2.2</ele>
        <time>2022-12-31T15:47:34Z</time>
      </trkpt>
      <trkpt lat="43.03062" lon="3.05171">
        <ele>2</ele>
        <time>2022-12-31T15:47:43Z</time>
      </trkpt>
      <trkpt lat="43.03081" lon="3.05102">
        <ele>2</ele>
        <time>2022-12-31T15:47:56Z</time>
      </trkpt>
      <trkpt lat="43.03094" lon="3.05053">
        <ele>1.8</ele>
        <time>2022-12-31T15:48:05Z</time>
      </trkpt>
      <trkpt lat="43.03111" lon="3.05004">
        <ele>2</ele>
        <time>2022-12-31T15:48:15Z</time>
      </trkpt>
      <trkpt lat="43.03123" lon="3.04963">
        <ele>2</ele>
        <time>2022-12-31T15:48:23Z</time>
      </trkpt>
      <trkpt lat="43.03136" lon="3.04927">
        <ele>1.8</ele>
        <time>2022-12-31T15:48:31Z</time>
      </trkpt>
      <trkpt lat="43.03142" lon="3.04913">
        <ele>1.8</ele>
        <time>2022-12-31T15:48:34Z</time>
      </trkpt>
      <trkpt lat="43.03151" lon="3.04887">
        <ele>1.8</ele>
        <time>2022-12-31T15:48:40Z</time>
      </trkpt>
      <trkpt lat="43.03162" lon="3.04854">
        <ele>1.8</ele>
        <time>2022-12-31T15:48:48Z</time>
      </trkpt>
      <trkpt lat="43.03177" lon="3.04814">
        <ele>1.6</ele>
        <time>2022-12-31T15:48:58Z</time>
      </trkpt>
      <trkpt lat="43.03186" lon="3.04786">
        <ele>2</ele>
        <time>2022-12-31T15:49:05Z</time>
      </trkpt>
      <trkpt lat="43.03197" lon="3.04753">
        <ele>2</ele>
        <time>2022-12-31T15:49:13Z</time>
      </trkpt>
      <trkpt lat="43.03212" lon="3.0471">
        <ele>2</ele>
        <time>2022-12-31T15:49:24Z</time>
      </trkpt>
      <trkpt lat="43.0322" lon="3.04675">
        <ele>1.8</ele>
        <time>2022-12-31T15:49:33Z</time>
      </trkpt>
      <trkpt lat="43.03211" lon="3.04659">
        <ele>1.8</ele>
        <time>2022-12-31T15:49:37Z</time>
      </trkpt>
      <trkpt lat="43.0319" lon="3.04645">
        <ele>1.6</ele>
        <time>2022-12-31T15:49:43Z</time>
      </trkpt>
      <trkpt lat="43.0316" lon="3.04625">
        <ele>1.8</ele>
        <time>2022-12-31T15:49:51Z</time>
      </trkpt>
      <trkpt lat="43.03156" lon="3.04623">
        <ele>1.8</ele>
        <time>2022-12-31T15:49:52Z</time>
      </trkpt>
      <trkpt lat="43.03118" lon="3.046">
        <ele>2</ele>
        <time>2022-12-31T15:50:02Z</time>
      </trkpt>
      <trkpt lat="43.03082" lon="3.04577">
        <ele>1.8</ele>
        <time>2022-12-31T15:50:11Z</time>
      </trkpt>
      <trkpt lat="43.03041" lon="3.04551">
        <ele>2.2</ele>
        <time>2022-12-31T15:50:22Z</time>
      </trkpt>
      <trkpt lat="43.02998" lon="3.04524">
        <ele>2</ele>
        <time>2022-12-31T15:50:33Z</time>
      </trkpt>
      <trkpt lat="43.02957" lon="3.04498">
        <ele>2.4</ele>
        <time>2022-12-31T15:50:43Z</time>
      </trkpt>
      <trkpt lat="43.0291" lon="3.04468">
        <ele>2.4</ele>
        <time>2022-12-31T15:50:53Z</time>
      </trkpt>
      <trkpt lat="43.02863" lon="3.04438">
        <ele>2.4</ele>
        <time>2022-12-31T15:51:03Z</time>
      </trkpt>
      <trkpt lat="43.02816" lon="3.04408">
        <ele>2.2</ele>
        <time>2022-12-31T15:51:13Z</time>
      </trkpt>
      <trkpt lat="43.02785" lon="3.04388">
        <ele>2.4</ele>
        <time>2022-12-31T15:51:20Z</time>
      </trkpt>
      <trkpt lat="43.02748" lon="3.04365">
        <ele>2.4</ele>
        <time>2022-12-31T15:51:29Z</time>
      </trkpt>
      <trkpt lat="43.02697" lon="3.04331">
        <ele>2.4</ele>
        <time>2022-12-31T15:51:41Z</time>
      </trkpt>
      <trkpt lat="43.02669" lon="3.04313">
        <ele>2.4</ele>
        <time>2022-12-31T15:51:48Z</time>
      </trkpt>
      <trkpt lat="43.02665" lon="3.0431">
        <ele>2.4</ele>
        <time>2022-12-31T15:51:49Z</time>
      </trkpt>
      <trkpt lat="43.02657" lon="3.04305">
        <ele>2.4</ele>
        <time>2022-12-31T15:51:51Z</time>
      </trkpt>
      <trkpt lat="43.02647" lon="3.04298">
        <ele>2.4</ele>
        <time>2022-12-31T15:51:54Z</time>
      </trkpt>
      <trkpt lat="43.0264" lon="3.04293">
        <ele>2.4</ele>
        <time>2022-12-31T15:51:58Z</time>
      </trkpt>
      <trkpt lat="43.02638" lon="3.04292">
        <ele>2.4</ele>
        <time>2022-12-31T15:52:00Z</time>
      </trkpt>
      <trkpt lat="43.02637" lon="3.04294">
        <ele>2.4</ele>
        <time>2022-12-31T15:52:02Z</time>
      </trkpt>
      <trkpt lat="43.02639" lon="3.04295">
        <ele>2.4</ele>
        <time>2022-12-31T15:52:04Z</time>
      </trkpt>
      <trkpt lat="43.02643" lon="3.0429">
        <ele>2.6</ele>
        <time>2022-12-31T15:52:08Z</time>
      </trkpt>
      <trkpt lat="43.02641" lon="3.04276">
        <ele>2.6</ele>
        <time>2022-12-31T15:52:13Z</time>
      </trkpt>
      <trkpt lat="43.02626" lon="3.0426">
        <ele>2.6</ele>
        <time>2022-12-31T15:52:19Z</time>
      </trkpt>
      <trkpt lat="43.02605" lon="3.04248">
        <ele>2.2</ele>
        <time>2022-12-31T15:52:26Z</time>
      </trkpt>
      <trkpt lat="43.02589" lon="3.04242">
        <ele>2.2</ele>
        <time>2022-12-31T15:52:33Z</time>
      </trkpt>
      <trkpt lat="43.02587" lon="3.04242">
        <ele>2.4</ele>
        <time>2022-12-31T15:52:35Z</time>
      </trkpt>
      <trkpt lat="43.02586" lon="3.04242">
        <ele>2.4</ele>
        <time>2022-12-31T15:52:37Z</time>
      </trkpt>
      <trkpt lat="43.02586" lon="3.04241">
        <ele>2.4</ele>
        <time>2022-12-31T15:52:38Z</time>
      </trkpt>
      <trkpt lat="43.02585" lon="3.0424">
        <ele>2.4</ele>
        <time>2022-12-31T15:52:39Z</time>
      </trkpt>
      <trkpt lat="43.02582" lon="3.04233">
        <ele>2.4</ele>
        <time>2022-12-31T15:52:44Z</time>
      </trkpt>
      <trkpt lat="43.02579" lon="3.04232">
        <ele>2.4</ele>
        <time>2022-12-31T15:52:46Z</time>
      </trkpt>
      <trkpt lat="43.02574" lon="3.04229">
        <ele>2.4</ele>
        <time>2022-12-31T15:52:50Z</time>
      </trkpt>
      <trkpt lat="43.02564" lon="3.04226">
        <ele>2.2</ele>
        <time>2022-12-31T15:52:55Z</time>
      </trkpt>
      <trkpt lat="43.02554" lon="3.04233">
        <ele>2.2</ele>
        <time>2022-12-31T15:53:00Z</time>
      </trkpt>
      <trkpt lat="43.02541" lon="3.04241">
        <ele>2.4</ele>
        <time>2022-12-31T15:53:06Z</time>
      </trkpt>
      <trkpt lat="43.02538" lon="3.0424">
        <ele>2.6</ele>
        <time>2022-12-31T15:53:07Z</time>
      </trkpt>
      <trkpt lat="43.0252" lon="3.04229">
        <ele>3.6</ele>
        <time>2022-12-31T15:53:14Z</time>
      </trkpt>
      <trkpt lat="43.02517" lon="3.04227">
        <ele>3.6</ele>
        <time>2022-12-31T15:53:15Z</time>
      </trkpt>
      <trkpt lat="43.02504" lon="3.04221">
        <ele>4.4</ele>
        <time>2022-12-31T15:53:20Z</time>
      </trkpt>
      <trkpt lat="43.02494" lon="3.0421">
        <ele>4.8</ele>
        <time>2022-12-31T15:53:24Z</time>
      </trkpt>
      <trkpt lat="43.0249" lon="3.04209">
        <ele>4.8</ele>
        <time>2022-12-31T15:53:25Z</time>
      </trkpt>
      <trkpt lat="43.02478" lon="3.0421">
        <ele>5.4</ele>
        <time>2022-12-31T15:53:29Z</time>
      </trkpt>
      <trkpt lat="43.02459" lon="3.04229">
        <ele>5.8</ele>
        <time>2022-12-31T15:53:36Z</time>
      </trkpt>
      <trkpt lat="43.02452" lon="3.04233">
        <ele>5.8</ele>
        <time>2022-12-31T15:53:38Z</time>
      </trkpt>
      <trkpt lat="43.02442" lon="3.04232">
        <ele>5.6</ele>
        <time>2022-12-31T15:53:40Z</time>
      </trkpt>
      <trkpt lat="43.02421" lon="3.04223">
        <ele>4.8</ele>
        <time>2022-12-31T15:53:45Z</time>
      </trkpt>
      <trkpt lat="43.02418" lon="3.04221">
        <ele>4.6</ele>
        <time>2022-12-31T15:53:46Z</time>
      </trkpt>
      <trkpt lat="43.02403" lon="3.04212">
        <ele>4.8</ele>
        <time>2022-12-31T15:53:52Z</time>
      </trkpt>
      <trkpt lat="43.02392" lon="3.04206">
        <ele>5.8</ele>
        <time>2022-12-31T15:53:58Z</time>
      </trkpt>
      <trkpt lat="43.02369" lon="3.04193">
        <ele>6.2</ele>
        <time>2022-12-31T15:54:08Z</time>
      </trkpt>
      <trkpt lat="43.02359" lon="3.04187">
        <ele>6.2</ele>
        <time>2022-12-31T15:54:14Z</time>
      </trkpt>
      <trkpt lat="43.02358" lon="3.04186">
        <ele>6</ele>
        <time>2022-12-31T15:54:18Z</time>
      </trkpt>
      <trkpt lat="43.02353" lon="3.04185">
        <ele>4.8</ele>
        <time>2022-12-31T15:54:38Z</time>
      </trkpt>
      <trkpt lat="43.02351" lon="3.04186">
        <ele>4.8</ele>
        <time>2022-12-31T15:54:39Z</time>
      </trkpt>
      <trkpt lat="43.02345" lon="3.04194">
        <ele>4.8</ele>
        <time>2022-12-31T15:54:44Z</time>
      </trkpt>
      <trkpt lat="43.0234" lon="3.04207">
        <ele>4.8</ele>
        <time>2022-12-31T15:54:50Z</time>
      </trkpt>
      <trkpt lat="43.02338" lon="3.04213">
        <ele>4.8</ele>
        <time>2022-12-31T15:54:52Z</time>
      </trkpt>
      <trkpt lat="43.02331" lon="3.04231">
        <ele>4.6</ele>
        <time>2022-12-31T15:54:56Z</time>
      </trkpt>
      <trkpt lat="43.02321" lon="3.04258">
        <ele>4</ele>
        <time>2022-12-31T15:55:01Z</time>
      </trkpt>
      <trkpt lat="43.02318" lon="3.04262">
        <ele>3.8</ele>
        <time>2022-12-31T15:55:02Z</time>
      </trkpt>
      <trkpt lat="43.02315" lon="3.04266">
        <ele>3.6</ele>
        <time>2022-12-31T15:55:03Z</time>
      </trkpt>
      <trkpt lat="43.02308" lon="3.04281">
        <ele>2.8</ele>
        <time>2022-12-31T15:55:07Z</time>
      </trkpt>
      <trkpt lat="43.02302" lon="3.04298">
        <ele>2.8</ele>
        <time>2022-12-31T15:55:12Z</time>
      </trkpt>
      <trkpt lat="43.02296" lon="3.04314">
        <ele>2.6</ele>
        <time>2022-12-31T15:55:17Z</time>
      </trkpt>
      <trkpt lat="43.02294" lon="3.0432">
        <ele>2.4</ele>
        <time>2022-12-31T15:55:19Z</time>
      </trkpt>
      <trkpt lat="43.02292" lon="3.04328">
        <ele>2.4</ele>
        <time>2022-12-31T15:55:22Z</time>
      </trkpt>
      <trkpt lat="43.02287" lon="3.04347">
        <ele>2.2</ele>
        <time>2022-12-31T15:55:28Z</time>
      </trkpt>
      <trkpt lat="43.02281" lon="3.04357">
        <ele>2.2</ele>
        <time>2022-12-31T15:55:32Z</time>
      </trkpt>
      <trkpt lat="43.02278" lon="3.04358">
        <ele>2.2</ele>
        <time>2022-12-31T15:55:33Z</time>
      </trkpt>
      <trkpt lat="43.02261" lon="3.04351">
        <ele>2.4</ele>
        <time>2022-12-31T15:55:38Z</time>
      </trkpt>
      <trkpt lat="43.02245" lon="3.04343">
        <ele>2.4</ele>
        <time>2022-12-31T15:55:44Z</time>
      </trkpt>
      <trkpt lat="43.02233" lon="3.04335">
        <ele>2.4</ele>
        <time>2022-12-31T15:55:49Z</time>
      </trkpt>
      <trkpt lat="43.02214" lon="3.04327">
        <ele>2.6</ele>
        <time>2022-12-31T15:55:56Z</time>
      </trkpt>
      <trkpt lat="43.02196" lon="3.04334">
        <ele>2.4</ele>
        <time>2022-12-31T15:56:03Z</time>
      </trkpt>
      <trkpt lat="43.0218" lon="3.04346">
        <ele>2.4</ele>
        <time>2022-12-31T15:56:11Z</time>
      </trkpt>
      <trkpt lat="43.02178" lon="3.04348">
        <ele>2.4</ele>
        <time>2022-12-31T15:56:13Z</time>
      </trkpt>
      <trkpt lat="43.02176" lon="3.04351">
        <ele>2.4</ele>
        <time>2022-12-31T15:56:15Z</time>
      </trkpt>
      <trkpt lat="43.02171" lon="3.04363">
        <ele>2.4</ele>
        <time>2022-12-31T15:56:22Z</time>
      </trkpt>
      <trkpt lat="43.02171" lon="3.04363">
        <ele>2.4</ele>
        <time>2022-12-31T15:56:25Z</time>
      </trkpt>
      <trkpt lat="43.02168" lon="3.04367">
        <ele>2.2</ele>
        <time>2022-12-31T15:58:00Z</time>
      </trkpt>
      <trkpt lat="43.02167" lon="3.04368">
        <ele>2.2</ele>
        <time>2022-12-31T15:58:01Z</time>
      </trkpt>
      <trkpt lat="43.02163" lon="3.04376">
        <ele>2</ele>
        <time>2022-12-31T15:58:05Z</time>
      </trkpt>
      <trkpt lat="43.02162" lon="3.04382">
        <ele>2</ele>
        <time>2022-12-31T15:58:08Z</time>
      </trkpt>
      <trkpt lat="43.02156" lon="3.04397">
        <ele>2</ele>
        <time>2022-12-31T15:58:16Z</time>
      </trkpt>
      <trkpt lat="43.02154" lon="3.04404">
        <ele>2</ele>
        <time>2022-12-31T15:58:19Z</time>
      </trkpt>
      <trkpt lat="43.02152" lon="3.04409">
        <ele>2</ele>
        <time>2022-12-31T15:58:21Z</time>
      </trkpt>
      <trkpt lat="43.02147" lon="3.04423">
        <ele>1.6</ele>
        <time>2022-12-31T15:58:28Z</time>
      </trkpt>
      <trkpt lat="43.02145" lon="3.04435">
        <ele>1.8</ele>
        <time>2022-12-31T15:58:35Z</time>
      </trkpt>
      <trkpt lat="43.02144" lon="3.04442">
        <ele>1.8</ele>
        <time>2022-12-31T15:58:42Z</time>
      </trkpt>
      <trkpt lat="43.02144" lon="3.04442">
        <ele>1.8</ele>
        <time>2022-12-31T15:58:47Z</time>
      </trkpt>
      <trkpt lat="43.02139" lon="3.04448">
        <ele>1.6</ele>
        <time>2022-12-31T15:59:03Z</time>
      </trkpt>
      <trkpt lat="43.02138" lon="3.04452">
        <ele>1.6</ele>
        <time>2022-12-31T15:59:04Z</time>
      </trkpt>
      <trkpt lat="43.02133" lon="3.04468">
        <ele>1.6</ele>
        <time>2022-12-31T15:59:10Z</time>
      </trkpt>
      <trkpt lat="43.02125" lon="3.04493">
        <ele>2</ele>
        <time>2022-12-31T15:59:17Z</time>
      </trkpt>
      <trkpt lat="43.02121" lon="3.04512">
        <ele>2</ele>
        <time>2022-12-31T15:59:23Z</time>
      </trkpt>
      <trkpt lat="43.0212" lon="3.04531">
        <ele>1.8</ele>
        <time>2022-12-31T15:59:30Z</time>
      </trkpt>
      <trkpt lat="43.0211" lon="3.0455">
        <ele>1.6</ele>
        <time>2022-12-31T15:59:36Z</time>
      </trkpt>
      <trkpt lat="43.02104" lon="3.04572">
        <ele>1.8</ele>
        <time>2022-12-31T15:59:42Z</time>
      </trkpt>
      <trkpt lat="43.02095" lon="3.046">
        <ele>2</ele>
        <time>2022-12-31T15:59:50Z</time>
      </trkpt>
      <trkpt lat="43.02086" lon="3.04619">
        <ele>1.8</ele>
        <time>2022-12-31T15:59:56Z</time>
      </trkpt>
      <trkpt lat="43.02081" lon="3.04641">
        <ele>1.8</ele>
        <time>2022-12-31T16:00:03Z</time>
      </trkpt>
      <trkpt lat="43.02076" lon="3.04652">
        <ele>1.8</ele>
        <time>2022-12-31T16:00:08Z</time>
      </trkpt>
      <trkpt lat="43.02076" lon="3.04653">
        <ele>1.8</ele>
        <time>2022-12-31T16:00:09Z</time>
      </trkpt>
      <trkpt lat="43.02073" lon="3.04658">
        <ele>1.8</ele>
        <time>2022-12-31T16:00:12Z</time>
      </trkpt>
      <trkpt lat="43.02071" lon="3.04665">
        <ele>2</ele>
        <time>2022-12-31T16:00:15Z</time>
      </trkpt>
      <trkpt lat="43.02065" lon="3.04683">
        <ele>1.8</ele>
        <time>2022-12-31T16:00:21Z</time>
      </trkpt>
      <trkpt lat="43.02057" lon="3.04708">
        <ele>1.6</ele>
        <time>2022-12-31T16:00:29Z</time>
      </trkpt>
      <trkpt lat="43.02044" lon="3.04749">
        <ele>1.6</ele>
        <time>2022-12-31T16:00:41Z</time>
      </trkpt>
      <trkpt lat="43.02035" lon="3.04776">
        <ele>1.6</ele>
        <time>2022-12-31T16:00:49Z</time>
      </trkpt>
      <trkpt lat="43.02022" lon="3.04816">
        <ele>1.6</ele>
        <time>2022-12-31T16:00:59Z</time>
      </trkpt>
      <trkpt lat="43.02009" lon="3.04856">
        <ele>1.6</ele>
        <time>2022-12-31T16:01:09Z</time>
      </trkpt>
      <trkpt lat="43.02001" lon="3.04879">
        <ele>1.8</ele>
        <time>2022-12-31T16:01:16Z</time>
      </trkpt>
      <trkpt lat="43.01996" lon="3.04889">
        <ele>2</ele>
        <time>2022-12-31T16:01:22Z</time>
      </trkpt>
      <trkpt lat="43.01992" lon="3.04905">
        <ele>2</ele>
        <time>2022-12-31T16:01:27Z</time>
      </trkpt>
      <trkpt lat="43.01985" lon="3.04929">
        <ele>2.2</ele>
        <time>2022-12-31T16:01:33Z</time>
      </trkpt>
      <trkpt lat="43.01977" lon="3.04952">
        <ele>2.2</ele>
        <time>2022-12-31T16:01:39Z</time>
      </trkpt>
      <trkpt lat="43.01967" lon="3.04981">
        <ele>2.2</ele>
        <time>2022-12-31T16:01:47Z</time>
      </trkpt>
      <trkpt lat="43.01959" lon="3.05007">
        <ele>2.2</ele>
        <time>2022-12-31T16:01:54Z</time>
      </trkpt>
      <trkpt lat="43.01945" lon="3.05046">
        <ele>2.4</ele>
        <time>2022-12-31T16:02:04Z</time>
      </trkpt>
      <trkpt lat="43.01932" lon="3.05085">
        <ele>2.4</ele>
        <time>2022-12-31T16:02:14Z</time>
      </trkpt>
      <trkpt lat="43.01921" lon="3.0512">
        <ele>2.4</ele>
        <time>2022-12-31T16:02:24Z</time>
      </trkpt>
      <trkpt lat="43.01919" lon="3.05129">
        <ele>2.2</ele>
        <time>2022-12-31T16:02:28Z</time>
      </trkpt>
      <trkpt lat="43.01921" lon="3.05131">
        <ele>2.2</ele>
        <time>2022-12-31T16:02:29Z</time>
      </trkpt>
      <trkpt lat="43.01937" lon="3.05141">
        <ele>2.2</ele>
        <time>2022-12-31T16:02:36Z</time>
      </trkpt>
      <trkpt lat="43.01942" lon="3.05146">
        <ele>2.2</ele>
        <time>2022-12-31T16:02:39Z</time>
      </trkpt>
      <trkpt lat="43.01942" lon="3.05149">
        <ele>2.2</ele>
        <time>2022-12-31T16:02:40Z</time>
      </trkpt>
      <trkpt lat="43.01937" lon="3.05166">
        <ele>2.4</ele>
        <time>2022-12-31T16:02:45Z</time>
      </trkpt>
      <trkpt lat="43.01932" lon="3.05184">
        <ele>2.6</ele>
        <time>2022-12-31T16:02:50Z</time>
      </trkpt>
      <trkpt lat="43.01922" lon="3.05218">
        <ele>2.8</ele>
        <time>2022-12-31T16:02:59Z</time>
      </trkpt>
      <trkpt lat="43.01912" lon="3.0525">
        <ele>3</ele>
        <time>2022-12-31T16:03:08Z</time>
      </trkpt>
      <trkpt lat="43.01902" lon="3.05276">
        <ele>3</ele>
        <time>2022-12-31T16:03:16Z</time>
      </trkpt>
      <trkpt lat="43.01891" lon="3.05308">
        <ele>3</ele>
        <time>2022-12-31T16:03:25Z</time>
      </trkpt>
      <trkpt lat="43.01881" lon="3.05339">
        <ele>2.6</ele>
        <time>2022-12-31T16:03:34Z</time>
      </trkpt>
      <trkpt lat="43.01871" lon="3.0537">
        <ele>2.2</ele>
        <time>2022-12-31T16:03:43Z</time>
      </trkpt>
      <trkpt lat="43.01863" lon="3.05392">
        <ele>2.4</ele>
        <time>2022-12-31T16:03:50Z</time>
      </trkpt>
      <trkpt lat="43.01853" lon="3.0542">
        <ele>2.6</ele>
        <time>2022-12-31T16:03:58Z</time>
      </trkpt>
      <trkpt lat="43.01847" lon="3.05441">
        <ele>2.2</ele>
        <time>2022-12-31T16:04:04Z</time>
      </trkpt>
      <trkpt lat="43.01836" lon="3.05474">
        <ele>2.2</ele>
        <time>2022-12-31T16:04:13Z</time>
      </trkpt>
      <trkpt lat="43.01824" lon="3.05511">
        <ele>2.4</ele>
        <time>2022-12-31T16:04:22Z</time>
      </trkpt>
      <trkpt lat="43.01809" lon="3.05551">
        <ele>2</ele>
        <time>2022-12-31T16:04:31Z</time>
      </trkpt>
      <trkpt lat="43.018" lon="3.0558">
        <ele>2.2</ele>
        <time>2022-12-31T16:04:38Z</time>
      </trkpt>
      <trkpt lat="43.01783" lon="3.0563">
        <ele>2.2</ele>
        <time>2022-12-31T16:04:49Z</time>
      </trkpt>
      <trkpt lat="43.01767" lon="3.05677">
        <ele>2.2</ele>
        <time>2022-12-31T16:04:59Z</time>
      </trkpt>
      <trkpt lat="43.01753" lon="3.05719">
        <ele>2.2</ele>
        <time>2022-12-31T16:05:08Z</time>
      </trkpt>
      <trkpt lat="43.01742" lon="3.05751">
        <ele>2</ele>
        <time>2022-12-31T16:05:16Z</time>
      </trkpt>
      <trkpt lat="43.01738" lon="3.05757">
        <ele>2</ele>
        <time>2022-12-31T16:05:19Z</time>
      </trkpt>
      <trkpt lat="43.01734" lon="3.05755">
        <ele>1.8</ele>
        <time>2022-12-31T16:05:21Z</time>
      </trkpt>
      <trkpt lat="43.01716" lon="3.05743">
        <ele>1.6</ele>
        <time>2022-12-31T16:05:27Z</time>
      </trkpt>
      <trkpt lat="43.01698" lon="3.0573">
        <ele>1.6</ele>
        <time>2022-12-31T16:05:33Z</time>
      </trkpt>
      <trkpt lat="43.01675" lon="3.05714">
        <ele>1.8</ele>
        <time>2022-12-31T16:05:41Z</time>
      </trkpt>
      <trkpt lat="43.0164" lon="3.05691">
        <ele>2</ele>
        <time>2022-12-31T16:05:52Z</time>
      </trkpt>
      <trkpt lat="43.01615" lon="3.05682">
        <ele>2.2</ele>
        <time>2022-12-31T16:06:00Z</time>
      </trkpt>
      <trkpt lat="43.01606" lon="3.05695">
        <ele>2.2</ele>
        <time>2022-12-31T16:06:04Z</time>
      </trkpt>
      <trkpt lat="43.01586" lon="3.05742">
        <ele>2.4</ele>
        <time>2022-12-31T16:06:15Z</time>
      </trkpt>
      <trkpt lat="43.01571" lon="3.05777">
        <ele>2.2</ele>
        <time>2022-12-31T16:06:23Z</time>
      </trkpt>
      <trkpt lat="43.01557" lon="3.05815">
        <ele>2</ele>
        <time>2022-12-31T16:06:31Z</time>
      </trkpt>
      <trkpt lat="43.01542" lon="3.05856">
        <ele>2</ele>
        <time>2022-12-31T16:06:40Z</time>
      </trkpt>
      <trkpt lat="43.01519" lon="3.05914">
        <ele>2.2</ele>
        <time>2022-12-31T16:06:53Z</time>
      </trkpt>
      <trkpt lat="43.01499" lon="3.05965">
        <ele>2.2</ele>
        <time>2022-12-31T16:07:04Z</time>
      </trkpt>
      <trkpt lat="43.01483" lon="3.06008">
        <ele>2.4</ele>
        <time>2022-12-31T16:07:13Z</time>
      </trkpt>
      <trkpt lat="43.01472" lon="3.06039">
        <ele>2.6</ele>
        <time>2022-12-31T16:07:20Z</time>
      </trkpt>
      <trkpt lat="43.01458" lon="3.06078">
        <ele>2.8</ele>
        <time>2022-12-31T16:07:29Z</time>
      </trkpt>
      <trkpt lat="43.01451" lon="3.06094">
        <ele>2.8</ele>
        <time>2022-12-31T16:07:33Z</time>
      </trkpt>
      <trkpt lat="43.01443" lon="3.06114">
        <ele>3</ele>
        <time>2022-12-31T16:07:38Z</time>
      </trkpt>
      <trkpt lat="43.01434" lon="3.06137">
        <ele>3.2</ele>
        <time>2022-12-31T16:07:44Z</time>
      </trkpt>
      <trkpt lat="43.01417" lon="3.06182">
        <ele>3.4</ele>
        <time>2022-12-31T16:07:54Z</time>
      </trkpt>
      <trkpt lat="43.01401" lon="3.06225">
        <ele>3.2</ele>
        <time>2022-12-31T16:08:04Z</time>
      </trkpt>
      <trkpt lat="43.01392" lon="3.06249">
        <ele>3.2</ele>
        <time>2022-12-31T16:08:10Z</time>
      </trkpt>
      <trkpt lat="43.01381" lon="3.06277">
        <ele>3.2</ele>
        <time>2022-12-31T16:08:18Z</time>
      </trkpt>
      <trkpt lat="43.01373" lon="3.06301">
        <ele>2.8</ele>
        <time>2022-12-31T16:08:25Z</time>
      </trkpt>
      <trkpt lat="43.01372" lon="3.0632">
        <ele>3.2</ele>
        <time>2022-12-31T16:08:31Z</time>
      </trkpt>
      <trkpt lat="43.0137" lon="3.06336">
        <ele>3.2</ele>
        <time>2022-12-31T16:08:38Z</time>
      </trkpt>
      <trkpt lat="43.01369" lon="3.06345">
        <ele>3.4</ele>
        <time>2022-12-31T16:08:45Z</time>
      </trkpt>
      <trkpt lat="43.01369" lon="3.06356">
        <ele>3.8</ele>
        <time>2022-12-31T16:18:32Z</time>
      </trkpt>
      <trkpt lat="43.01371" lon="3.06362">
        <ele>3.8</ele>
        <time>2022-12-31T16:18:35Z</time>
      </trkpt>
      <trkpt lat="43.01373" lon="3.06365">
        <ele>3.8</ele>
        <time>2022-12-31T16:18:37Z</time>
      </trkpt>
      <trkpt lat="43.01377" lon="3.06373">
        <ele>3.6</ele>
        <time>2022-12-31T16:18:41Z</time>
      </trkpt>
      <trkpt lat="43.01379" lon="3.0639">
        <ele>3.2</ele>
        <time>2022-12-31T16:18:48Z</time>
      </trkpt>
      <trkpt lat="43.01372" lon="3.06409">
        <ele>3.2</ele>
        <time>2022-12-31T16:18:55Z</time>
      </trkpt>
      <trkpt lat="43.01365" lon="3.06436">
        <ele>3</ele>
        <time>2022-12-31T16:19:04Z</time>
      </trkpt>
      <trkpt lat="43.01359" lon="3.06455">
        <ele>2.8</ele>
        <time>2022-12-31T16:19:13Z</time>
      </trkpt>
      <trkpt lat="43.01352" lon="3.06464">
        <ele>2.8</ele>
        <time>2022-12-31T16:19:21Z</time>
      </trkpt>
      <trkpt lat="43.01351" lon="3.06465">
        <ele>2.8</ele>
        <time>2022-12-31T16:19:22Z</time>
      </trkpt>
      <trkpt lat="43.01344" lon="3.06464">
        <ele>3</ele>
        <time>2022-12-31T16:19:28Z</time>
      </trkpt>
      <trkpt lat="43.01344" lon="3.06464">
        <ele>3</ele>
        <time>2022-12-31T16:19:30Z</time>
      </trkpt>
      <trkpt lat="43.01345" lon="3.06463">
        <ele>3.8</ele>
        <time>2022-12-31T16:33:04Z</time>
      </trkpt>
      <trkpt lat="43.01345" lon="3.06463">
        <ele>3.8</ele>
        <time>2022-12-31T16:33:05Z</time>
      </trkpt>
      <trkpt lat="43.01347" lon="3.06449">
        <ele>3.8</ele>
        <time>2022-12-31T16:33:11Z</time>
      </trkpt>
      <trkpt lat="43.01348" lon="3.06448">
        <ele>3.8</ele>
        <time>2022-12-31T16:33:12Z</time>
      </trkpt>
      <trkpt lat="43.01357" lon="3.06438">
        <ele>3.8</ele>
        <time>2022-12-31T16:33:19Z</time>
      </trkpt>
      <trkpt lat="43.01357" lon="3.06436">
        <ele>3.8</ele>
        <time>2022-12-31T16:33:20Z</time>
      </trkpt>
      <trkpt lat="43.01358" lon="3.06423">
        <ele>3.8</ele>
        <time>2022-12-31T16:33:27Z</time>
      </trkpt>
      <trkpt lat="43.01364" lon="3.06412">
        <ele>4</ele>
        <time>2022-12-31T16:33:34Z</time>
      </trkpt>
      <trkpt lat="43.01365" lon="3.06411">
        <ele>4</ele>
        <time>2022-12-31T16:33:35Z</time>
      </trkpt>
      <trkpt lat="43.01365" lon="3.06406">
        <ele>4</ele>
        <time>2022-12-31T16:33:38Z</time>
      </trkpt>
      <trkpt lat="43.01366" lon="3.06404">
        <ele>4</ele>
        <time>2022-12-31T16:33:39Z</time>
      </trkpt>
      <trkpt lat="43.0137" lon="3.06395">
        <ele>3.8</ele>
        <time>2022-12-31T16:33:45Z</time>
      </trkpt>
      <trkpt lat="43.01369" lon="3.06391">
        <ele>3.8</ele>
        <time>2022-12-31T16:33:47Z</time>
      </trkpt>
      <trkpt lat="43.01372" lon="3.06377">
        <ele>3.6</ele>
        <time>2022-12-31T16:33:54Z</time>
      </trkpt>
      <trkpt lat="43.01373" lon="3.06361">
        <ele>3.8</ele>
        <time>2022-12-31T16:34:03Z</time>
      </trkpt>
      <trkpt lat="43.01375" lon="3.06348">
        <ele>4</ele>
        <time>2022-12-31T16:34:10Z</time>
      </trkpt>
      <trkpt lat="43.01375" lon="3.06331">
        <ele>4.2</ele>
        <time>2022-12-31T16:34:18Z</time>
      </trkpt>
      <trkpt lat="43.01375" lon="3.06331">
        <ele>4.2</ele>
        <time>2022-12-31T16:34:20Z</time>
      </trkpt>
      <trkpt lat="43.01376" lon="3.06325">
        <ele>4</ele>
        <time>2022-12-31T16:34:28Z</time>
      </trkpt>
      <trkpt lat="43.01376" lon="3.06319">
        <ele>3.8</ele>
        <time>2022-12-31T16:34:30Z</time>
      </trkpt>
      <trkpt lat="43.0138" lon="3.06305">
        <ele>3.8</ele>
        <time>2022-12-31T16:34:35Z</time>
      </trkpt>
      <trkpt lat="43.01384" lon="3.06288">
        <ele>3.8</ele>
        <time>2022-12-31T16:34:42Z</time>
      </trkpt>
      <trkpt lat="43.01388" lon="3.06274">
        <ele>3.6</ele>
        <time>2022-12-31T16:34:49Z</time>
      </trkpt>
      <trkpt lat="43.01393" lon="3.06262">
        <ele>3.4</ele>
        <time>2022-12-31T16:34:57Z</time>
      </trkpt>
      <trkpt lat="43.01397" lon="3.06245">
        <ele>3.6</ele>
        <time>2022-12-31T16:35:05Z</time>
      </trkpt>
      <trkpt lat="43.01406" lon="3.06227">
        <ele>3.8</ele>
        <time>2022-12-31T16:35:11Z</time>
      </trkpt>
      <trkpt lat="43.01413" lon="3.06208">
        <ele>3.6</ele>
        <time>2022-12-31T16:35:17Z</time>
      </trkpt>
      <trkpt lat="43.0142" lon="3.0619">
        <ele>3.4</ele>
        <time>2022-12-31T16:35:23Z</time>
      </trkpt>
      <trkpt lat="43.01427" lon="3.06174">
        <ele>3.4</ele>
        <time>2022-12-31T16:35:29Z</time>
      </trkpt>
      <trkpt lat="43.01433" lon="3.0616">
        <ele>3.4</ele>
        <time>2022-12-31T16:35:35Z</time>
      </trkpt>
      <trkpt lat="43.01434" lon="3.06155">
        <ele>3.4</ele>
        <time>2022-12-31T16:35:37Z</time>
      </trkpt>
      <trkpt lat="43.0144" lon="3.06138">
        <ele>3.4</ele>
        <time>2022-12-31T16:35:44Z</time>
      </trkpt>
      <trkpt lat="43.01445" lon="3.06125">
        <ele>3.2</ele>
        <time>2022-12-31T16:35:50Z</time>
      </trkpt>
      <trkpt lat="43.01452" lon="3.06106">
        <ele>3.2</ele>
        <time>2022-12-31T16:35:58Z</time>
      </trkpt>
      <trkpt lat="43.0146" lon="3.06085">
        <ele>3.2</ele>
        <time>2022-12-31T16:36:05Z</time>
      </trkpt>
      <trkpt lat="43.01473" lon="3.0605">
        <ele>2.8</ele>
        <time>2022-12-31T16:36:15Z</time>
      </trkpt>
      <trkpt lat="43.01481" lon="3.06027">
        <ele>2.8</ele>
        <time>2022-12-31T16:36:22Z</time>
      </trkpt>
      <trkpt lat="43.01489" lon="3.06006">
        <ele>2.6</ele>
        <time>2022-12-31T16:36:29Z</time>
      </trkpt>
      <trkpt lat="43.01498" lon="3.05983">
        <ele>2.6</ele>
        <time>2022-12-31T16:36:36Z</time>
      </trkpt>
      <trkpt lat="43.01499" lon="3.05979">
        <ele>2.6</ele>
        <time>2022-12-31T16:36:37Z</time>
      </trkpt>
      <trkpt lat="43.01507" lon="3.05957">
        <ele>2.4</ele>
        <time>2022-12-31T16:36:43Z</time>
      </trkpt>
      <trkpt lat="43.01517" lon="3.05932">
        <ele>2.2</ele>
        <time>2022-12-31T16:36:50Z</time>
      </trkpt>
      <trkpt lat="43.01527" lon="3.05904">
        <ele>2</ele>
        <time>2022-12-31T16:36:58Z</time>
      </trkpt>
      <trkpt lat="43.01538" lon="3.05875">
        <ele>1.8</ele>
        <time>2022-12-31T16:37:05Z</time>
      </trkpt>
      <trkpt lat="43.01545" lon="3.05856">
        <ele>1.6</ele>
        <time>2022-12-31T16:37:11Z</time>
      </trkpt>
      <trkpt lat="43.01551" lon="3.05842">
        <ele>1.6</ele>
        <time>2022-12-31T16:37:14Z</time>
      </trkpt>
      <trkpt lat="43.0156" lon="3.05821">
        <ele>1.4</ele>
        <time>2022-12-31T16:37:20Z</time>
      </trkpt>
      <trkpt lat="43.01576" lon="3.05777">
        <ele>1.2</ele>
        <time>2022-12-31T16:37:32Z</time>
      </trkpt>
      <trkpt lat="43.01585" lon="3.05749">
        <ele>1.4</ele>
        <time>2022-12-31T16:37:40Z</time>
      </trkpt>
      <trkpt lat="43.01598" lon="3.05717">
        <ele>1.4</ele>
        <time>2022-12-31T16:37:49Z</time>
      </trkpt>
      <trkpt lat="43.01608" lon="3.05693">
        <ele>1.4</ele>
        <time>2022-12-31T16:37:57Z</time>
      </trkpt>
      <trkpt lat="43.01613" lon="3.05685">
        <ele>1.6</ele>
        <time>2022-12-31T16:38:02Z</time>
      </trkpt>
      <trkpt lat="43.01619" lon="3.05683">
        <ele>1.6</ele>
        <time>2022-12-31T16:38:06Z</time>
      </trkpt>
      <trkpt lat="43.01622" lon="3.05685">
        <ele>1.6</ele>
        <time>2022-12-31T16:38:07Z</time>
      </trkpt>
      <trkpt lat="43.01636" lon="3.05694">
        <ele>1.6</ele>
        <time>2022-12-31T16:38:12Z</time>
      </trkpt>
      <trkpt lat="43.01667" lon="3.05714">
        <ele>1.6</ele>
        <time>2022-12-31T16:38:23Z</time>
      </trkpt>
      <trkpt lat="43.01684" lon="3.05724">
        <ele>1.6</ele>
        <time>2022-12-31T16:38:29Z</time>
      </trkpt>
      <trkpt lat="43.01706" lon="3.05738">
        <ele>1.4</ele>
        <time>2022-12-31T16:38:37Z</time>
      </trkpt>
      <trkpt lat="43.01732" lon="3.05754">
        <ele>1.4</ele>
        <time>2022-12-31T16:38:44Z</time>
      </trkpt>
      <trkpt lat="43.0174" lon="3.05753">
        <ele>1.4</ele>
        <time>2022-12-31T16:38:46Z</time>
      </trkpt>
      <trkpt lat="43.01744" lon="3.0575">
        <ele>1.4</ele>
        <time>2022-12-31T16:38:47Z</time>
      </trkpt>
      <trkpt lat="43.01746" lon="3.05746">
        <ele>1.4</ele>
        <time>2022-12-31T16:38:48Z</time>
      </trkpt>
      <trkpt lat="43.01753" lon="3.05726">
        <ele>1.4</ele>
        <time>2022-12-31T16:38:52Z</time>
      </trkpt>
      <trkpt lat="43.01765" lon="3.05688">
        <ele>1.4</ele>
        <time>2022-12-31T16:39:01Z</time>
      </trkpt>
      <trkpt lat="43.01773" lon="3.05667">
        <ele>1.4</ele>
        <time>2022-12-31T16:39:07Z</time>
      </trkpt>
      <trkpt lat="43.01782" lon="3.05641">
        <ele>1.6</ele>
        <time>2022-12-31T16:39:14Z</time>
      </trkpt>
      <trkpt lat="43.01795" lon="3.05608">
        <ele>1.6</ele>
        <time>2022-12-31T16:39:22Z</time>
      </trkpt>
      <trkpt lat="43.01806" lon="3.05575">
        <ele>1.6</ele>
        <time>2022-12-31T16:39:30Z</time>
      </trkpt>
      <trkpt lat="43.01818" lon="3.05539">
        <ele>1.8</ele>
        <time>2022-12-31T16:39:39Z</time>
      </trkpt>
      <trkpt lat="43.01832" lon="3.05499">
        <ele>1.6</ele>
        <time>2022-12-31T16:39:49Z</time>
      </trkpt>
      <trkpt lat="43.01845" lon="3.05459">
        <ele>1.8</ele>
        <time>2022-12-31T16:39:59Z</time>
      </trkpt>
      <trkpt lat="43.01857" lon="3.05423">
        <ele>1.8</ele>
        <time>2022-12-31T16:40:07Z</time>
      </trkpt>
      <trkpt lat="43.01868" lon="3.05389">
        <ele>1.6</ele>
        <time>2022-12-31T16:40:14Z</time>
      </trkpt>
      <trkpt lat="43.01876" lon="3.05367">
        <ele>2</ele>
        <time>2022-12-31T16:40:19Z</time>
      </trkpt>
      <trkpt lat="43.01884" lon="3.05342">
        <ele>2</ele>
        <time>2022-12-31T16:40:24Z</time>
      </trkpt>
      <trkpt lat="43.01886" lon="3.05335">
        <ele>2</ele>
        <time>2022-12-31T16:40:26Z</time>
      </trkpt>
      <trkpt lat="43.01893" lon="3.05316">
        <ele>2.2</ele>
        <time>2022-12-31T16:40:31Z</time>
      </trkpt>
      <trkpt lat="43.01895" lon="3.0531">
        <ele>2.4</ele>
        <time>2022-12-31T16:40:33Z</time>
      </trkpt>
      <trkpt lat="43.019" lon="3.05298">
        <ele>2.4</ele>
        <time>2022-12-31T16:40:36Z</time>
      </trkpt>
      <trkpt lat="43.01905" lon="3.05279">
        <ele>2.4</ele>
        <time>2022-12-31T16:40:41Z</time>
      </trkpt>
      <trkpt lat="43.01915" lon="3.05252">
        <ele>2.8</ele>
        <time>2022-12-31T16:40:48Z</time>
      </trkpt>
      <trkpt lat="43.01926" lon="3.05222">
        <ele>3</ele>
        <time>2022-12-31T16:40:55Z</time>
      </trkpt>
      <trkpt lat="43.01933" lon="3.05195">
        <ele>3</ele>
        <time>2022-12-31T16:41:02Z</time>
      </trkpt>
      <trkpt lat="43.01945" lon="3.05158">
        <ele>3</ele>
        <time>2022-12-31T16:41:12Z</time>
      </trkpt>
      <trkpt lat="43.01949" lon="3.05147">
        <ele>3</ele>
        <time>2022-12-31T16:41:16Z</time>
      </trkpt>
      <trkpt lat="43.01949" lon="3.05144">
        <ele>3</ele>
        <time>2022-12-31T16:41:17Z</time>
      </trkpt>
      <trkpt lat="43.01948" lon="3.05141">
        <ele>3</ele>
        <time>2022-12-31T16:41:18Z</time>
      </trkpt>
      <trkpt lat="43.01937" lon="3.05134">
        <ele>2.8</ele>
        <time>2022-12-31T16:41:21Z</time>
      </trkpt>
      <trkpt lat="43.01927" lon="3.05126">
        <ele>2.8</ele>
        <time>2022-12-31T16:41:24Z</time>
      </trkpt>
      <trkpt lat="43.01926" lon="3.05122">
        <ele>2.8</ele>
        <time>2022-12-31T16:41:25Z</time>
      </trkpt>
      <trkpt lat="43.01932" lon="3.05104">
        <ele>2.6</ele>
        <time>2022-12-31T16:41:29Z</time>
      </trkpt>
      <trkpt lat="43.01943" lon="3.05071">
        <ele>2.6</ele>
        <time>2022-12-31T16:41:36Z</time>
      </trkpt>
      <trkpt lat="43.01949" lon="3.05051">
        <ele>2.8</ele>
        <time>2022-12-31T16:41:41Z</time>
      </trkpt>
      <trkpt lat="43.01962" lon="3.05019">
        <ele>2.8</ele>
        <time>2022-12-31T16:41:49Z</time>
      </trkpt>
      <trkpt lat="43.0197" lon="3.04994">
        <ele>2.6</ele>
        <time>2022-12-31T16:41:55Z</time>
      </trkpt>
      <trkpt lat="43.01977" lon="3.04967">
        <ele>2.4</ele>
        <time>2022-12-31T16:42:02Z</time>
      </trkpt>
      <trkpt lat="43.01991" lon="3.04926">
        <ele>2.8</ele>
        <time>2022-12-31T16:42:12Z</time>
      </trkpt>
      <trkpt lat="43.02001" lon="3.04898">
        <ele>2.8</ele>
        <time>2022-12-31T16:42:19Z</time>
      </trkpt>
      <trkpt lat="43.02003" lon="3.04891">
        <ele>2.8</ele>
        <time>2022-12-31T16:42:23Z</time>
      </trkpt>
      <trkpt lat="43.02009" lon="3.04873">
        <ele>2.8</ele>
        <time>2022-12-31T16:42:28Z</time>
      </trkpt>
      <trkpt lat="43.02018" lon="3.04844">
        <ele>2.6</ele>
        <time>2022-12-31T16:42:35Z</time>
      </trkpt>
      <trkpt lat="43.02033" lon="3.04802">
        <ele>2.4</ele>
        <time>2022-12-31T16:42:44Z</time>
      </trkpt>
      <trkpt lat="43.02046" lon="3.04756">
        <ele>2.4</ele>
        <time>2022-12-31T16:42:54Z</time>
      </trkpt>
      <trkpt lat="43.02054" lon="3.04734">
        <ele>2.4</ele>
        <time>2022-12-31T16:42:59Z</time>
      </trkpt>
      <trkpt lat="43.02066" lon="3.04698">
        <ele>2.4</ele>
        <time>2022-12-31T16:43:07Z</time>
      </trkpt>
      <trkpt lat="43.02073" lon="3.04678">
        <ele>2.4</ele>
        <time>2022-12-31T16:43:13Z</time>
      </trkpt>
      <trkpt lat="43.02079" lon="3.04657">
        <ele>2.4</ele>
        <time>2022-12-31T16:43:19Z</time>
      </trkpt>
      <trkpt lat="43.02086" lon="3.04631">
        <ele>2.4</ele>
        <time>2022-12-31T16:43:25Z</time>
      </trkpt>
      <trkpt lat="43.02096" lon="3.04603">
        <ele>2.2</ele>
        <time>2022-12-31T16:43:32Z</time>
      </trkpt>
      <trkpt lat="43.02106" lon="3.04576">
        <ele>2.2</ele>
        <time>2022-12-31T16:43:39Z</time>
      </trkpt>
      <trkpt lat="43.02116" lon="3.04544">
        <ele>2.4</ele>
        <time>2022-12-31T16:43:47Z</time>
      </trkpt>
      <trkpt lat="43.02125" lon="3.04512">
        <ele>2.2</ele>
        <time>2022-12-31T16:43:55Z</time>
      </trkpt>
      <trkpt lat="43.0214" lon="3.04469">
        <ele>2.6</ele>
        <time>2022-12-31T16:44:06Z</time>
      </trkpt>
      <trkpt lat="43.02149" lon="3.04449">
        <ele>2.6</ele>
        <time>2022-12-31T16:44:11Z</time>
      </trkpt>
      <trkpt lat="43.02154" lon="3.04426">
        <ele>2.6</ele>
        <time>2022-12-31T16:44:17Z</time>
      </trkpt>
      <trkpt lat="43.02163" lon="3.04402">
        <ele>2.8</ele>
        <time>2022-12-31T16:44:24Z</time>
      </trkpt>
      <trkpt lat="43.02167" lon="3.04392">
        <ele>2.8</ele>
        <time>2022-12-31T16:44:29Z</time>
      </trkpt>
      <trkpt lat="43.02173" lon="3.04376">
        <ele>2.8</ele>
        <time>2022-12-31T16:44:36Z</time>
      </trkpt>
      <trkpt lat="43.02179" lon="3.04355">
        <ele>2.8</ele>
        <time>2022-12-31T16:44:42Z</time>
      </trkpt>
      <trkpt lat="43.02187" lon="3.04332">
        <ele>3</ele>
        <time>2022-12-31T16:44:48Z</time>
      </trkpt>
      <trkpt lat="43.02188" lon="3.04329">
        <ele>3</ele>
        <time>2022-12-31T16:44:49Z</time>
      </trkpt>
      <trkpt lat="43.02192" lon="3.04314">
        <ele>3</ele>
        <time>2022-12-31T16:44:54Z</time>
      </trkpt>
      <trkpt lat="43.02195" lon="3.04299">
        <ele>3</ele>
        <time>2022-12-31T16:44:59Z</time>
      </trkpt>
      <trkpt lat="43.02202" lon="3.04276">
        <ele>3</ele>
        <time>2022-12-31T16:45:05Z</time>
      </trkpt>
      <trkpt lat="43.02209" lon="3.04253">
        <ele>3.2</ele>
        <time>2022-12-31T16:45:11Z</time>
      </trkpt>
      <trkpt lat="43.02222" lon="3.04217">
        <ele>3.2</ele>
        <time>2022-12-31T16:45:20Z</time>
      </trkpt>
      <trkpt lat="43.02229" lon="3.04191">
        <ele>3.2</ele>
        <time>2022-12-31T16:45:27Z</time>
      </trkpt>
      <trkpt lat="43.02228" lon="3.04189">
        <ele>3.2</ele>
        <time>2022-12-31T16:45:28Z</time>
      </trkpt>
      <trkpt lat="43.02227" lon="3.04189">
        <ele>3.2</ele>
        <time>2022-12-31T16:45:32Z</time>
      </trkpt>
    </trkseg>
  </trk>
</gpx>